Observation data for New Home on 07/20/2019      Previous  Date       Current Mesonet Observations  Soil Data  Daily Summary Page  Observations in Plain Language
KNH1 200500Z 18014KT 30/12 A2997 RMK A01 T02970121  RH  034%=      5-min Rain = 0
KNH1 200501Z 18014G20KT 30/12 A2997 RMK A01 T02970121  RH  034%=      5-min Rain = 0
KNH1 200502Z 18014KT 30/12 A2997 RMK A01 T02970122  RH  034%=      5-min Rain = 0
KNH1 200503Z 18014KT 30/12 A2997 RMK A01 T02960121  RH  034%=      5-min Rain = 0
KNH1 200504Z 18014KT 30/12 A2997 RMK A01 T02960122  RH  034%=      5-min Rain = 0
KNH1 200505Z 18012KT 30/12 A2997 RMK A01 T02960122  RH  034%=      5-min Rain = 0
KNH1 200506Z 18011KT 30/12 A2997 RMK A01 T02950122  RH  034%=      5-min Rain = 0
KNH1 200507Z 18013KT 29/12 A2997 RMK A01 T02940122  RH  034%=      5-min Rain = 0
KNH1 200508Z 18013KT 29/12 A2997 RMK A01 T02940122  RH  035%=      5-min Rain = 0
KNH1 200509Z 18015KT 29/12 A2997 RMK A01 T02940122  RH  035%=      5-min Rain = 0
KNH1 200510Z 18014KT 29/12 A2997 RMK A01 T02940122  RH  035%=      5-min Rain = 0
KNH1 200511Z 18013G18KT 29/12 A2997 RMK A01 T02940122  RH  035%=      5-min Rain = 0
KNH1 200512Z 18016KT 29/12 A2997 RMK A01 T02940123  RH  035%=      5-min Rain = 0
KNH1 200513Z 18015KT 29/12 A2997 RMK A01 T02940123  RH  035%=      5-min Rain = 0
KNH1 200514Z 18014KT 29/12 A2997 RMK A01 T02940122  RH  035%=      5-min Rain = 0
KNH1 200515Z 18013KT 29/12 A2997 RMK A01 T02940123  RH  035%=      5-min Rain = 0
KNH1 200516Z 18014G19KT 29/12 A2997 RMK A01 T02940123  RH  035%=      5-min Rain = 0
KNH1 200517Z 18014KT 29/12 A2997 RMK A01 T02930123  RH  035%=      5-min Rain = 0
KNH1 200518Z 19014KT 29/12 A2997 RMK A01 T02930123  RH  035%=      5-min Rain = 0
KNH1 200519Z 18013KT 29/12 A2997 RMK A01 T02930123  RH  035%=      5-min Rain = 0
KNH1 200520Z 18015KT 29/12 A2997 RMK A01 T02920123  RH  035%=      5-min Rain = 0
KNH1 200521Z 18013KT 29/12 A2997 RMK A01 T02920123  RH  035%=      5-min Rain = 0
KNH1 200522Z 18014KT 29/12 A2997 RMK A01 T02910123  RH  035%=      5-min Rain = 0
KNH1 200523Z 19013G18KT 29/12 A2998 RMK A01 T02920123  RH  035%=      5-min Rain = 0
KNH1 200524Z 18012G19KT 29/12 A2998 RMK A01 T02920123  RH  035%=      5-min Rain = 0
KNH1 200525Z 18015KT 29/12 A2998 RMK A01 T02910123  RH  035%=      5-min Rain = 0
KNH1 200526Z 18011G17KT 29/12 A2998 RMK A01 T02910123  RH  035%=      5-min Rain = 0
KNH1 200527Z 18015KT 29/12 A2998 RMK A01 T02900123  RH  036%=      5-min Rain = 0
KNH1 200528Z 18015KT 29/12 A2998 RMK A01 T02900123  RH  036%=      5-min Rain = 0
KNH1 200529Z 18013KT 29/12 A2998 RMK A01 T02900123  RH  036%=      5-min Rain = 0
KNH1 200530Z 18012KT 29/12 A2998 RMK A01 T02900124  RH  036%=      5-min Rain = 0
KNH1 200531Z 18014G19KT 29/12 A2998 RMK A01 T02890123  RH  036%=      5-min Rain = 0
KNH1 200532Z 18015KT 29/12 A2998 RMK A01 T02890123  RH  036%=      5-min Rain = 0
KNH1 200533Z 18016KT 29/12 A2998 RMK A01 T02900124  RH  036%=      5-min Rain = 0
KNH1 200534Z 18012KT 29/12 A2998 RMK A01 T02890123  RH  036%=      5-min Rain = 0
KNH1 200535Z 18013KT 29/12 A2998 RMK A01 T02890123  RH  036%=      5-min Rain = 0
KNH1 200536Z 18013KT 29/12 A2998 RMK A01 T02890123  RH  036%=      5-min Rain = 0
KNH1 200537Z 18016KT 29/12 A2998 RMK A01 T02890124  RH  036%=      5-min Rain = 0
KNH1 200538Z 18016KT 29/12 A2998 RMK A01 T02880124  RH  036%=      5-min Rain = 0
KNH1 200539Z 18014KT 29/12 A2998 RMK A01 T02880124  RH  036%=      5-min Rain = 0
KNH1 200540Z 18017KT 29/13 A2997 RMK A01 T02880125  RH  037%=      5-min Rain = 0
KNH1 200541Z 18016KT 29/13 A2998 RMK A01 T02880126  RH  037%=      5-min Rain = 0
KNH1 200542Z 18016G21KT 29/13 A2998 RMK A01 T02880126  RH  037%=      5-min Rain = 0
KNH1 200543Z 18016KT 29/13 A2998 RMK A01 T02880126  RH  037%=      5-min Rain = 0
KNH1 200544Z 18011KT 29/13 A2998 RMK A01 T02880126  RH  037%=      5-min Rain = 0
KNH1 200545Z 18015KT 29/13 A2998 RMK A01 T02870126  RH  037%=      5-min Rain = 0
KNH1 200546Z 18016G21KT 29/13 A2997 RMK A01 T02870126  RH  037%=      5-min Rain = 0
KNH1 200547Z 18016G21KT 29/13 A2997 RMK A01 T02860126  RH  037%=      5-min Rain = 0
KNH1 200548Z 19013KT 29/13 A2997 RMK A01 T02870126  RH  037%=      5-min Rain = 0
KNH1 200549Z 18016KT 29/13 A2997 RMK A01 T02870126  RH  037%=      5-min Rain = 0
KNH1 200550Z 18017KT 29/13 A2997 RMK A01 T02870127  RH  037%=      5-min Rain = 0
KNH1 200551Z 19017KT 29/13 A2997 RMK A01 T02870127  RH  037%=      5-min Rain = 0
KNH1 200552Z 18016KT 29/13 A2997 RMK A01 T02860127  RH  037%=      5-min Rain = 0
KNH1 200553Z 18017KT 29/13 A2997 RMK A01 T02860127  RH  037%=      5-min Rain = 0
KNH1 200554Z 18014KT 29/13 A2997 RMK A01 T02860127  RH  038%=      5-min Rain = 0
KNH1 200555Z 19014KT 29/13 A2997 RMK A01 T02860127  RH  038%=      5-min Rain = 0
KNH1 200556Z 18015KT 29/13 A2997 RMK A01 T02850127  RH  038%=      5-min Rain = 0
KNH1 200557Z 19013KT 29/13 A2997 RMK A01 T02850127  RH  038%=      5-min Rain = 0
KNH1 200558Z 19015KT 28/13 A2997 RMK A01 T02840128  RH  038%=      5-min Rain = 0
KNH1 200559Z 18014KT 28/13 A2997 RMK A01 T02840128  RH  038%=      5-min Rain = 0
KNH1 200600Z 18013KT 28/13 A2997 RMK A01 T02840128  RH  038%=      5-min Rain = 0
KNH1 200601Z 19015KT 28/13 A2997 RMK A01 T02830128  RH  038%=      5-min Rain = 0
KNH1 200602Z 19015KT 28/13 A2997 RMK A01 T02830128  RH  038%=      5-min Rain = 0
KNH1 200603Z 19015KT 28/13 A2997 RMK A01 T02830128  RH  038%=      5-min Rain = 0
KNH1 200604Z 18015G20KT 28/13 A2997 RMK A01 T02830128  RH  038%=      5-min Rain = 0
KNH1 200605Z 19016KT 28/13 A2997 RMK A01 T02830128  RH  038%=      5-min Rain = 0
KNH1 200606Z 18016KT 28/13 A2997 RMK A01 T02830129  RH  038%=      5-min Rain = 0
KNH1 200607Z 19014G19KT 28/13 A2997 RMK A01 T02830128  RH  038%=      5-min Rain = 0
KNH1 200608Z 18015G21KT 28/13 A2997 RMK A01 T02830129  RH  038%=      5-min Rain = 0
KNH1 200609Z 18016KT 28/13 A2997 RMK A01 T02830129  RH  039%=      5-min Rain = 0
KNH1 200610Z 19015G20KT 28/13 A2997 RMK A01 T02830129  RH  039%=      5-min Rain = 0
KNH1 200611Z 18015KT 28/13 A2998 RMK A01 T02830129  RH  039%=      5-min Rain = 0
KNH1 200612Z 18015KT 28/13 A2998 RMK A01 T02820129  RH  039%=      5-min Rain = 0
KNH1 200613Z 18015KT 28/13 A2998 RMK A01 T02830129  RH  039%=      5-min Rain = 0
KNH1 200614Z 19014G21KT 28/13 A2998 RMK A01 T02820129  RH  039%=      5-min Rain = 0
KNH1 200615Z 19014KT 28/13 A2998 RMK A01 T02820130  RH  039%=      5-min Rain = 0
KNH1 200616Z 19015KT 28/13 A2998 RMK A01 T02820130  RH  039%=      5-min Rain = 0
KNH1 200617Z 19015G20KT 28/13 A2998 RMK A01 T02820129  RH  039%=      5-min Rain = 0
KNH1 200618Z 19015KT 28/13 A2998 RMK A01 T02820130  RH  039%=      5-min Rain = 0
KNH1 200619Z 19014G19KT 28/13 A2998 RMK A01 T02820130  RH  039%=      5-min Rain = 0
KNH1 200620Z 19014KT 28/13 A2997 RMK A01 T02820130  RH  039%=      5-min Rain = 0
KNH1 200621Z 19016G21KT 28/13 A2998 RMK A01 T02810130  RH  039%=      5-min Rain = 0
KNH1 200622Z 19013KT 28/13 A2997 RMK A01 T02810130  RH  039%=      5-min Rain = 0
KNH1 200623Z 19014KT 28/13 A2998 RMK A01 T02800129  RH  039%=      5-min Rain = 0
KNH1 200624Z 19016KT 28/13 A2998 RMK A01 T02810130  RH  039%=      5-min Rain = 0
KNH1 200625Z 19014G20KT 28/13 A2998 RMK A01 T02810130  RH  039%=      5-min Rain = 0
KNH1 200626Z 19015G20KT 28/13 A2998 RMK A01 T02810130  RH  039%=      5-min Rain = 0
KNH1 200627Z 19014KT 28/13 A2998 RMK A01 T02810130  RH  039%=      5-min Rain = 0
KNH1 200628Z 19014KT 28/13 A2998 RMK A01 T02800130  RH  039%=      5-min Rain = 0
KNH1 200629Z 19014KT 28/13 A2998 RMK A01 T02800130  RH  039%=      5-min Rain = 0
KNH1 200630Z 19013KT 28/13 A2998 RMK A01 T02800130  RH  040%=      5-min Rain = 0
KNH1 200631Z 19012G18KT 28/13 A2998 RMK A01 T02790130  RH  040%=      5-min Rain = 0
KNH1 200632Z 19015KT 28/13 A2997 RMK A01 T02790130  RH  040%=      5-min Rain = 0
KNH1 200633Z 19014KT 28/13 A2998 RMK A01 T02790130  RH  040%=      5-min Rain = 0
KNH1 200634Z 19014KT 28/13 A2998 RMK A01 T02790130  RH  040%=      5-min Rain = 0
KNH1 200635Z 19016KT 28/13 A2997 RMK A01 T02790130  RH  040%=      5-min Rain = 0
KNH1 200636Z 19013KT 28/13 A2998 RMK A01 T02790130  RH  040%=      5-min Rain = 0
KNH1 200637Z 19014KT 28/13 A2997 RMK A01 T02790130  RH  040%=      5-min Rain = 0
KNH1 200638Z 19014KT 28/13 A2997 RMK A01 T02790130  RH  040%=      5-min Rain = 0
KNH1 200639Z 19014G19KT 28/13 A2997 RMK A01 T02780130  RH  040%=      5-min Rain = 0
KNH1 200640Z 19014KT 28/13 A2997 RMK A01 T02780131  RH  040%=      5-min Rain = 0
KNH1 200641Z 19012KT 28/13 A2998 RMK A01 T02780131  RH  040%=      5-min Rain = 0
KNH1 200642Z 19015KT 28/13 A2998 RMK A01 T02780131  RH  040%=      5-min Rain = 0
KNH1 200643Z 19013G18KT 28/13 A2998 RMK A01 T02780131  RH  040%=      5-min Rain = 0
KNH1 200644Z 19012G18KT 28/13 A2998 RMK A01 T02780131  RH  040%=      5-min Rain = 0
KNH1 200645Z 19014KT 28/13 A2998 RMK A01 T02780132  RH  040%=      5-min Rain = 0
KNH1 200646Z 19011KT 28/13 A2998 RMK A01 T02780131  RH  040%=      5-min Rain = 0
KNH1 200647Z 19013KT 28/13 A2998 RMK A01 T02780132  RH  041%=      5-min Rain = 0
KNH1 200648Z 19012KT 28/13 A2998 RMK A01 T02770131  RH  041%=      5-min Rain = 0
KNH1 200649Z 19014KT 28/13 A2998 RMK A01 T02770132  RH  041%=      5-min Rain = 0
KNH1 200650Z 19014KT 28/13 A2998 RMK A01 T02760131  RH  041%=      5-min Rain = 0
KNH1 200651Z 19015KT 28/13 A2998 RMK A01 T02770132  RH  041%=      5-min Rain = 0
KNH1 200652Z 19013KT 28/13 A2998 RMK A01 T02770132  RH  041%=      5-min Rain = 0
KNH1 200653Z 19014KT 28/13 A2998 RMK A01 T02770132  RH  041%=      5-min Rain = 0
KNH1 200654Z 19014G19KT 28/13 A2998 RMK A01 T02760132  RH  041%=      5-min Rain = 0
KNH1 200655Z 19014KT 28/13 A2998 RMK A01 T02770133  RH  041%=      5-min Rain = 0
KNH1 200656Z 19013KT 28/13 A2998 RMK A01 T02760132  RH  041%=      5-min Rain = 0
KNH1 200657Z 19014KT 28/13 A2998 RMK A01 T02760133  RH  041%=      5-min Rain = 0
KNH1 200658Z 19013KT 28/13 A2998 RMK A01 T02760133  RH  041%=      5-min Rain = 0
KNH1 200659Z 19014KT 28/13 A2998 RMK A01 T02760133  RH  041%=      5-min Rain = 0
KNH1 200700Z 19012KT 28/13 A2998 RMK A01 T02760133  RH  041%=      5-min Rain = 0
KNH1 200701Z 19014KT 28/13 A2998 RMK A01 T02750133  RH  042%=      5-min Rain = 0
KNH1 200702Z 19013KT 28/13 A2998 RMK A01 T02750133  RH  042%=      5-min Rain = 0
KNH1 200703Z 19012KT 28/13 A2998 RMK A01 T02750133  RH  042%=      5-min Rain = 0
KNH1 200704Z 19012KT 28/13 A2998 RMK A01 T02750133  RH  042%=      5-min Rain = 0
KNH1 200705Z 19013KT 27/13 A2998 RMK A01 T02740133  RH  042%=      5-min Rain = 0
KNH1 200706Z 19012KT 27/13 A2998 RMK A01 T02740133  RH  042%=      5-min Rain = 0
KNH1 200707Z 19013KT 27/13 A2998 RMK A01 T02740134  RH  042%=      5-min Rain = 0
KNH1 200708Z 19013KT 27/13 A2998 RMK A01 T02740133  RH  042%=      5-min Rain = 0
KNH1 200709Z 19013KT 27/13 A2998 RMK A01 T02740134  RH  042%=      5-min Rain = 0
KNH1 200710Z 19011KT 27/13 A2998 RMK A01 T02740134  RH  042%=      5-min Rain = 0
KNH1 200711Z 19012KT 27/13 A2998 RMK A01 T02730134  RH  042%=      5-min Rain = 0
KNH1 200712Z 19014KT 27/13 A2998 RMK A01 T02730134  RH  042%=      5-min Rain = 0
KNH1 200713Z 19013KT 27/13 A2998 RMK A01 T02730134  RH  042%=      5-min Rain = 0
KNH1 200714Z 19013KT 27/13 A2998 RMK A01 T02730134  RH  042%=      5-min Rain = 0
KNH1 200715Z 19013KT 27/13 A2998 RMK A01 T02730134  RH  042%=      5-min Rain = 0
KNH1 200716Z 19013KT 27/13 A2998 RMK A01 T02730134  RH  042%=      5-min Rain = 0
KNH1 200717Z 19011KT 27/13 A2998 RMK A01 T02730134  RH  042%=      5-min Rain = 0
KNH1 200718Z 19012KT 27/13 A2998 RMK A01 T02730134  RH  042%=      5-min Rain = 0
KNH1 200719Z 19013G19KT 27/13 A2998 RMK A01 T02720134  RH  043%=      5-min Rain = 0
KNH1 200720Z 19012KT 27/13 A2998 RMK A01 T02720134  RH  043%=      5-min Rain = 0
KNH1 200721Z 19012KT 27/13 A2998 RMK A01 T02720134  RH  043%=      5-min Rain = 0
KNH1 200722Z 19012KT 27/13 A2998 RMK A01 T02720134  RH  043%=      5-min Rain = 0
KNH1 200723Z 19013KT 27/13 A2997 RMK A01 T02720134  RH  043%=      5-min Rain = 0
KNH1 200724Z 19013KT 27/13 A2997 RMK A01 T02710134  RH  043%=      5-min Rain = 0
KNH1 200725Z 19012KT 27/13 A2997 RMK A01 T02710134  RH  043%=      5-min Rain = 0
KNH1 200726Z 19011KT 27/13 A2997 RMK A01 T02710134  RH  043%=      5-min Rain = 0
KNH1 200727Z 19012KT 27/13 A2997 RMK A01 T02710134  RH  043%=      5-min Rain = 0
KNH1 200728Z 19012KT 27/13 A2997 RMK A01 T02710134  RH  043%=      5-min Rain = 0
KNH1 200729Z 19013KT 27/14 A2997 RMK A01 T02710135  RH  043%=      5-min Rain = 0
KNH1 200730Z 19011KT 27/13 A2997 RMK A01 T02700134  RH  043%=      5-min Rain = 0
KNH1 200731Z 19011KT 27/13 A2997 RMK A01 T02700134  RH  043%=      5-min Rain = 0
KNH1 200732Z 19011KT 27/13 A2997 RMK A01 T02690134  RH  043%=      5-min Rain = 0
KNH1 200733Z 19012KT 27/13 A2997 RMK A01 T02690134  RH  043%=      5-min Rain = 0
KNH1 200734Z 19010KT 27/13 A2997 RMK A01 T02690134  RH  043%=      5-min Rain = 0
KNH1 200735Z 19011KT 27/14 A2997 RMK A01 T02690135  RH  044%=      5-min Rain = 0
KNH1 200736Z 19013KT 27/14 A2997 RMK A01 T02690135  RH  044%=      5-min Rain = 0
KNH1 200737Z 19012KT 27/14 A2997 RMK A01 T02690135  RH  044%=      5-min Rain = 0
KNH1 200738Z 19012KT 27/14 A2997 RMK A01 T02690135  RH  044%=      5-min Rain = 0
KNH1 200739Z 19010KT 27/14 A2997 RMK A01 T02680135  RH  044%=      5-min Rain = 0
KNH1 200740Z 19012KT 27/13 A2997 RMK A01 T02680134  RH  044%=      5-min Rain = 0
KNH1 200741Z 19011KT 27/14 A2997 RMK A01 T02680135  RH  044%=      5-min Rain = 0
KNH1 200742Z 19011KT 27/13 A2997 RMK A01 T02670134  RH  044%=      5-min Rain = 0
KNH1 200743Z 19011KT 27/13 A2997 RMK A01 T02670134  RH  044%=      5-min Rain = 0
KNH1 200744Z 19011KT 27/13 A2997 RMK A01 T02660134  RH  044%=      5-min Rain = 0
KNH1 200745Z 18011KT 27/13 A2997 RMK A01 T02660134  RH  044%=      5-min Rain = 0
KNH1 200746Z 19011KT 27/13 A2997 RMK A01 T02660134  RH  044%=      5-min Rain = 0
KNH1 200747Z 18010KT 27/13 A2997 RMK A01 T02660134  RH  044%=      5-min Rain = 0
KNH1 200748Z 19010KT 27/13 A2997 RMK A01 T02650134  RH  044%=      5-min Rain = 0
KNH1 200749Z 18010KT 27/13 A2997 RMK A01 T02650134  RH  044%=      5-min Rain = 0
KNH1 200750Z 19012KT 26/13 A2997 RMK A01 T02640134  RH  045%=      5-min Rain = 0
KNH1 200751Z 18011KT 26/13 A2997 RMK A01 T02640134  RH  045%=      5-min Rain = 0
KNH1 200752Z 19010KT 27/13 A2997 RMK A01 T02650134  RH  045%=      5-min Rain = 0
KNH1 200753Z 18009KT 26/13 A2997 RMK A01 T02640134  RH  045%=      5-min Rain = 0
KNH1 200754Z 19010KT 26/13 A2997 RMK A01 T02640134  RH  045%=      5-min Rain = 0
KNH1 200755Z 19011KT 26/13 A2997 RMK A01 T02640134  RH  045%=      5-min Rain = 0
KNH1 200756Z 19011KT 26/13 A2997 RMK A01 T02640134  RH  045%=      5-min Rain = 0
KNH1 200757Z 19009KT 26/13 A2997 RMK A01 T02630134  RH  045%=      5-min Rain = 0
KNH1 200758Z 19010KT 26/13 A2997 RMK A01 T02640134  RH  045%=      5-min Rain = 0
KNH1 200759Z 19011KT 26/13 A2997 RMK A01 T02630134  RH  045%=      5-min Rain = 0
KNH1 200800Z 19009KT 26/13 A2997 RMK A01 T02630134  RH  045%=      5-min Rain = 0
KNH1 200801Z 19010KT 26/13 A2997 RMK A01 T02630134  RH  045%=      5-min Rain = 0
KNH1 200802Z 19009KT 26/13 A2997 RMK A01 T02630134  RH  045%=      5-min Rain = 0
KNH1 200803Z 19010KT 26/13 A2997 RMK A01 T02630134  RH  045%=      5-min Rain = 0
KNH1 200804Z 19010KT 26/13 A2997 RMK A01 T02620134  RH  045%=      5-min Rain = 0
KNH1 200805Z 19008KT 26/13 A2997 RMK A01 T02620134  RH  045%=      5-min Rain = 0
KNH1 200806Z 19010KT 26/13 A2997 RMK A01 T02620134  RH  045%=      5-min Rain = 0
KNH1 200807Z 19010KT 26/13 A2997 RMK A01 T02620134  RH  045%=      5-min Rain = 0
KNH1 200808Z 19009KT 26/13 A2997 RMK A01 T02620134  RH  045%=      5-min Rain = 0
KNH1 200809Z 19009KT 26/13 A2997 RMK A01 T02620134  RH  045%=      5-min Rain = 0
KNH1 200810Z 19010KT 26/13 A2997 RMK A01 T02610134  RH  045%=      5-min Rain = 0
KNH1 200811Z 19008KT 26/13 A2997 RMK A01 T02610133  RH  045%=      5-min Rain = 0
KNH1 200812Z 19009KT 26/13 A2997 RMK A01 T02610132  RH  045%=      5-min Rain = 0
KNH1 200813Z 19009KT 26/13 A2997 RMK A01 T02600132  RH  045%=      5-min Rain = 0
KNH1 200814Z 18011KT 26/13 A2997 RMK A01 T02600132  RH  045%=      5-min Rain = 0
KNH1 200815Z 18009KT 26/13 A2997 RMK A01 T02600132  RH  045%=      5-min Rain = 0
KNH1 200816Z 18008KT 26/13 A2997 RMK A01 T02590132  RH  045%=      5-min Rain = 0
KNH1 200817Z 18008KT 26/13 A2997 RMK A01 T02590133  RH  046%=      5-min Rain = 0
KNH1 200818Z 19008KT 26/13 A2997 RMK A01 T02580133  RH  046%=      5-min Rain = 0
KNH1 200819Z 18008KT 26/13 A2997 RMK A01 T02570133  RH  046%=      5-min Rain = 0
KNH1 200820Z 19008KT 26/13 A2997 RMK A01 T02570133  RH  046%=      5-min Rain = 0
KNH1 200821Z 18009KT 26/13 A2997 RMK A01 T02560133  RH  046%=      5-min Rain = 0
KNH1 200822Z 19009KT 26/13 A2997 RMK A01 T02560133  RH  046%=      5-min Rain = 0
KNH1 200823Z 18009KT 26/13 A2997 RMK A01 T02560133  RH  047%=      5-min Rain = 0
KNH1 200824Z 18009KT 26/13 A2997 RMK A01 T02560133  RH  047%=      5-min Rain = 0
KNH1 200825Z 18008KT 26/13 A2997 RMK A01 T02560133  RH  047%=      5-min Rain = 0
KNH1 200826Z 18010KT 26/13 A2997 RMK A01 T02560134  RH  047%=      5-min Rain = 0
KNH1 200827Z 18009KT 26/13 A2997 RMK A01 T02560134  RH  047%=      5-min Rain = 0
KNH1 200828Z 19009KT 26/13 A2997 RMK A01 T02560134  RH  047%=      5-min Rain = 0
KNH1 200829Z 18009KT 26/13 A2997 RMK A01 T02550133  RH  047%=      5-min Rain = 0
KNH1 200830Z 18010KT 26/13 A2997 RMK A01 T02550133  RH  047%=      5-min Rain = 0
KNH1 200831Z 18009KT 26/13 A2997 RMK A01 T02550134  RH  047%=      5-min Rain = 0
KNH1 200832Z 18010KT 26/13 A2997 RMK A01 T02550134  RH  047%=      5-min Rain = 0
KNH1 200833Z 18010KT 26/13 A2997 RMK A01 T02550133  RH  047%=      5-min Rain = 0
KNH1 200834Z 18011KT 26/13 A2997 RMK A01 T02550133  RH  047%=      5-min Rain = 0
KNH1 200835Z 18011KT 26/13 A2997 RMK A01 T02550134  RH  047%=      5-min Rain = 0
KNH1 200836Z 18009KT 26/13 A2997 RMK A01 T02560134  RH  047%=      5-min Rain = 0
KNH1 200837Z 18010KT 26/13 A2997 RMK A01 T02550133  RH  047%=      5-min Rain = 0
KNH1 200838Z 18010KT 26/13 A2997 RMK A01 T02550134  RH  047%=      5-min Rain = 0
KNH1 200839Z 18009KT 26/13 A2997 RMK A01 T02550134  RH  047%=      5-min Rain = 0
KNH1 200840Z 18010KT 26/13 A2997 RMK A01 T02550134  RH  047%=      5-min Rain = 0
KNH1 200841Z 18011KT 26/13 A2997 RMK A01 T02560134  RH  047%=      5-min Rain = 0
KNH1 200842Z 18010KT 26/13 A2997 RMK A01 T02560134  RH  047%=      5-min Rain = 0
KNH1 200843Z 18010KT 26/13 A2997 RMK A01 T02550134  RH  047%=      5-min Rain = 0
KNH1 200844Z 18010KT 26/13 A2997 RMK A01 T02550134  RH  047%=      5-min Rain = 0
KNH1 200845Z 18011KT 26/13 A2997 RMK A01 T02550134  RH  047%=      5-min Rain = 0
KNH1 200846Z 18010KT 26/13 A2997 RMK A01 T02550134  RH  047%=      5-min Rain = 0
KNH1 200847Z 18012KT 26/13 A2997 RMK A01 T02550134  RH  047%=      5-min Rain = 0
KNH1 200848Z 18011KT 26/13 A2997 RMK A01 T02550134  RH  047%=      5-min Rain = 0
KNH1 200849Z 18013KT 26/13 A2997 RMK A01 T02550134  RH  047%=      5-min Rain = 0
KNH1 200850Z 19013KT 26/13 A2996 RMK A01 T02550134  RH  047%=      5-min Rain = 0
KNH1 200851Z 18013KT 26/13 A2997 RMK A01 T02550134  RH  047%=      5-min Rain = 0
KNH1 200852Z 19012KT 26/13 A2996 RMK A01 T02550134  RH  047%=      5-min Rain = 0
KNH1 200853Z 18012KT 26/13 A2997 RMK A01 T02550134  RH  047%=      5-min Rain = 0
KNH1 200854Z 19010KT 26/13 A2997 RMK A01 T02550134  RH  047%=      5-min Rain = 0
KNH1 200855Z 18011KT 26/14 A2997 RMK A01 T02550135  RH  047%=      5-min Rain = 0
KNH1 200856Z 18012KT 25/13 A2997 RMK A01 T02540134  RH  047%=      5-min Rain = 0
KNH1 200857Z 18010KT 25/14 A2997 RMK A01 T02540135  RH  047%=      5-min Rain = 0
KNH1 200858Z 18010KT 25/13 A2997 RMK A01 T02540134  RH  047%=      5-min Rain = 0
KNH1 200859Z 18009KT 25/13 A2997 RMK A01 T02540134  RH  047%=      5-min Rain = 0
KNH1 200900Z 19011KT 25/13 A2997 RMK A01 T02530134  RH  048%=      5-min Rain = 0
KNH1 200901Z 18011KT 25/13 A2997 RMK A01 T02530134  RH  048%=      5-min Rain = 0
KNH1 200902Z 18010KT 25/13 A2997 RMK A01 T02520134  RH  048%=      5-min Rain = 0
KNH1 200903Z 19011KT 25/13 A2997 RMK A01 T02520134  RH  048%=      5-min Rain = 0
KNH1 200904Z 18009KT 25/13 A2997 RMK A01 T02520134  RH  048%=      5-min Rain = 0
KNH1 200905Z 18010KT 25/13 A2997 RMK A01 T02510134  RH  048%=      5-min Rain = 0
KNH1 200906Z 18010KT 25/13 A2997 RMK A01 T02510134  RH  048%=      5-min Rain = 0
KNH1 200907Z 18011KT 25/13 A2997 RMK A01 T02510134  RH  048%=      5-min Rain = 0
KNH1 200908Z 18011KT 25/13 A2997 RMK A01 T02510134  RH  048%=      5-min Rain = 0
KNH1 200909Z 19010KT 25/13 A2997 RMK A01 T02510134  RH  048%=      5-min Rain = 0
KNH1 200910Z 18012KT 25/13 A2997 RMK A01 T02500134  RH  048%=      5-min Rain = 0
KNH1 200911Z 19011KT 25/13 A2997 RMK A01 T02500134  RH  048%=      5-min Rain = 0
KNH1 200912Z 19012KT 25/13 A2997 RMK A01 T02500134  RH  048%=      5-min Rain = 0
KNH1 200913Z 18010KT 25/13 A2997 RMK A01 T02500133  RH  048%=      5-min Rain = 0
KNH1 200914Z 19010KT 25/13 A2997 RMK A01 T02500133  RH  048%=      5-min Rain = 0
KNH1 200915Z 18011KT 25/13 A2997 RMK A01 T02490133  RH  049%=      5-min Rain = 0
KNH1 200916Z 18010KT 25/13 A2997 RMK A01 T02490133  RH  049%=      5-min Rain = 0
KNH1 200917Z 18010KT 25/13 A2997 RMK A01 T02480133  RH  049%=      5-min Rain = 0
KNH1 200918Z 18010KT 25/13 A2997 RMK A01 T02480133  RH  049%=      5-min Rain = 0
KNH1 200919Z 18012KT 25/13 A2997 RMK A01 T02480134  RH  049%=      5-min Rain = 0
KNH1 200920Z 18010KT 25/13 A2997 RMK A01 T02480134  RH  049%=      5-min Rain = 0
KNH1 200921Z 19011KT 25/13 A2997 RMK A01 T02470134  RH  049%=      5-min Rain = 0
KNH1 200922Z 18011KT 25/13 A2997 RMK A01 T02480134  RH  049%=      5-min Rain = 0
KNH1 200923Z 18011KT 25/13 A2997 RMK A01 T02480134  RH  049%=      5-min Rain = 0
KNH1 200924Z 18012KT 25/13 A2997 RMK A01 T02480134  RH  049%=      5-min Rain = 0
KNH1 200925Z 18011KT 25/13 A2997 RMK A01 T02470134  RH  049%=      5-min Rain = 0
KNH1 200926Z 18011KT 25/13 A2996 RMK A01 T02470134  RH  049%=      5-min Rain = 0
KNH1 200927Z 18012KT 25/13 A2996 RMK A01 T02470134  RH  049%=      5-min Rain = 0
KNH1 200928Z 18012KT 25/14 A2996 RMK A01 T02470135  RH  049%=      5-min Rain = 0
KNH1 200929Z 18013KT 25/13 A2996 RMK A01 T02470134  RH  049%=      5-min Rain = 0
KNH1 200930Z 18012KT 25/13 A2996 RMK A01 T02470134  RH  050%=      5-min Rain = 0
KNH1 200931Z 18011KT 25/14 A2996 RMK A01 T02470135  RH  050%=      5-min Rain = 0
KNH1 200932Z 18011KT 25/14 A2996 RMK A01 T02470135  RH  050%=      5-min Rain = 0
KNH1 200933Z 19011KT 25/14 A2996 RMK A01 T02460135  RH  050%=      5-min Rain = 0
KNH1 200934Z 18011KT 25/14 A2996 RMK A01 T02460135  RH  050%=      5-min Rain = 0
KNH1 200935Z 18011KT 25/14 A2996 RMK A01 T02460135  RH  050%=      5-min Rain = 0
KNH1 200936Z 19012KT 25/14 A2996 RMK A01 T02460135  RH  050%=      5-min Rain = 0
KNH1 200937Z 19013KT 25/14 A2996 RMK A01 T02460135  RH  050%=      5-min Rain = 0
KNH1 200938Z 19011KT 25/14 A2997 RMK A01 T02460135  RH  050%=      5-min Rain = 0
KNH1 200939Z 18012KT 25/14 A2996 RMK A01 T02460135  RH  050%=      5-min Rain = 0
KNH1 200940Z 18010KT 25/14 A2996 RMK A01 T02460135  RH  050%=      5-min Rain = 0
KNH1 200941Z 18011KT 25/14 A2996 RMK A01 T02450135  RH  050%=      5-min Rain = 0
KNH1 200942Z 18011KT 25/14 A2996 RMK A01 T02450135  RH  050%=      5-min Rain = 0
KNH1 200943Z 18012KT 25/14 A2996 RMK A01 T02450136  RH  051%=      5-min Rain = 0
KNH1 200944Z 18012KT 25/14 A2996 RMK A01 T02450136  RH  051%=      5-min Rain = 0
KNH1 200945Z 18012KT 25/14 A2996 RMK A01 T02450136  RH  051%=      5-min Rain = 0
KNH1 200946Z 18012KT 25/14 A2996 RMK A01 T02450137  RH  051%=      5-min Rain = 0
KNH1 200947Z 18012KT 25/14 A2996 RMK A01 T02450136  RH  051%=      5-min Rain = 0
KNH1 200948Z 18010KT 25/14 A2996 RMK A01 T02450137  RH  051%=      5-min Rain = 0
KNH1 200949Z 18013KT 24/14 A2996 RMK A01 T02440137  RH  051%=      5-min Rain = 0
KNH1 200950Z 18012KT 24/14 A2996 RMK A01 T02440137  RH  051%=      5-min Rain = 0
KNH1 200951Z 19012G17KT 24/14 A2996 RMK A01 T02440138  RH  051%=      5-min Rain = 0
KNH1 200952Z 18012G17KT 24/14 A2996 RMK A01 T02440138  RH  052%=      5-min Rain = 0
KNH1 200953Z 18012KT 24/14 A2996 RMK A01 T02440138  RH  052%=      5-min Rain = 0
KNH1 200954Z 19014KT 24/14 A2996 RMK A01 T02440138  RH  052%=      5-min Rain = 0
KNH1 200955Z 18012KT 24/14 A2996 RMK A01 T02440139  RH  052%=      5-min Rain = 0
KNH1 200956Z 19012KT 24/14 A2996 RMK A01 T02440139  RH  052%=      5-min Rain = 0
KNH1 200957Z 18012KT 24/14 A2996 RMK A01 T02440139  RH  052%=      5-min Rain = 0
KNH1 200958Z 19013KT 24/14 A2996 RMK A01 T02440139  RH  052%=      5-min Rain = 0
KNH1 200959Z 18012KT 24/14 A2996 RMK A01 T02430139  RH  052%=      5-min Rain = 0
KNH1 201000Z 19014KT 24/14 A2996 RMK A01 T02430140  RH  052%=      5-min Rain = 0
KNH1 201001Z 18012KT 24/14 A2996 RMK A01 T02430140  RH  052%=      5-min Rain = 0
KNH1 201002Z 18013KT 24/14 A2996 RMK A01 T02430140  RH  053%=      5-min Rain = 0
KNH1 201003Z 18014KT 24/14 A2996 RMK A01 T02430140  RH  053%=      5-min Rain = 0
KNH1 201004Z 18011KT 24/14 A2996 RMK A01 T02430140  RH  053%=      5-min Rain = 0
KNH1 201005Z 18012KT 24/14 A2996 RMK A01 T02430141  RH  053%=      5-min Rain = 0
KNH1 201006Z 18012KT 24/14 A2996 RMK A01 T02430141  RH  053%=      5-min Rain = 0
KNH1 201007Z 18012KT 24/14 A2996 RMK A01 T02430141  RH  053%=      5-min Rain = 0
KNH1 201008Z 18010KT 24/14 A2996 RMK A01 T02430141  RH  053%=      5-min Rain = 0
KNH1 201009Z 18012KT 24/14 A2996 RMK A01 T02420141  RH  053%=      5-min Rain = 0
KNH1 201010Z 18011KT 24/14 A2996 RMK A01 T02420141  RH  053%=      5-min Rain = 0
KNH1 201011Z 18008KT 24/14 A2996 RMK A01 T02420141  RH  053%=      5-min Rain = 0
KNH1 201012Z 18010KT 24/14 A2996 RMK A01 T02420141  RH  053%=      5-min Rain = 0
KNH1 201013Z 18009KT 24/14 A2996 RMK A01 T02420141  RH  053%=      5-min Rain = 0
KNH1 201014Z 18008KT 24/14 A2996 RMK A01 T02420142  RH  054%=      5-min Rain = 0
KNH1 201015Z 18010KT 24/14 A2996 RMK A01 T02410142  RH  054%=      5-min Rain = 0
KNH1 201016Z 18010KT 24/14 A2996 RMK A01 T02410142  RH  054%=      5-min Rain = 0
KNH1 201017Z 18010KT 24/14 A2996 RMK A01 T02410142  RH  054%=      5-min Rain = 0
KNH1 201018Z 18010KT 24/14 A2996 RMK A01 T02410142  RH  054%=      5-min Rain = 0
KNH1 201019Z 18010KT 24/14 A2996 RMK A01 T02410142  RH  054%=      5-min Rain = 0
KNH1 201020Z 18008KT 24/14 A2996 RMK A01 T02400143  RH  054%=      5-min Rain = 0
KNH1 201021Z 18008G13KT 24/14 A2996 RMK A01 T02400143  RH  055%=      5-min Rain = 0
KNH1 201022Z 18010KT 24/14 A2996 RMK A01 T02390143  RH  055%=      5-min Rain = 0
KNH1 201023Z 18010KT 24/14 A2997 RMK A01 T02400144  RH  055%=      5-min Rain = 0
KNH1 201024Z 18010KT 24/14 A2997 RMK A01 T02390144  RH  055%=      5-min Rain = 0
KNH1 201025Z 18011KT 24/15 A2997 RMK A01 T02390145  RH  055%=      5-min Rain = 0
KNH1 201026Z 18009KT 24/15 A2997 RMK A01 T02390145  RH  055%=      5-min Rain = 0
KNH1 201027Z 18011KT 24/15 A2997 RMK A01 T02390145  RH  055%=      5-min Rain = 0
KNH1 201028Z 18010KT 24/15 A2996 RMK A01 T02390145  RH  055%=      5-min Rain = 0
KNH1 201029Z 18008KT 24/15 A2996 RMK A01 T02390145  RH  056%=      5-min Rain = 0
KNH1 201030Z 18011KT 24/15 A2996 RMK A01 T02390146  RH  056%=      5-min Rain = 0
KNH1 201031Z 17010KT 24/15 A2996 RMK A01 T02390146  RH  056%=      5-min Rain = 0
KNH1 201032Z 18009KT 24/15 A2996 RMK A01 T02390146  RH  056%=      5-min Rain = 0
KNH1 201033Z 17009KT 24/15 A2996 RMK A01 T02400146  RH  056%=      5-min Rain = 0
KNH1 201034Z 18010KT 24/15 A2996 RMK A01 T02390146  RH  056%=      5-min Rain = 0
KNH1 201035Z 18009KT 24/15 A2996 RMK A01 T02400146  RH  056%=      5-min Rain = 0
KNH1 201036Z 18009KT 24/15 A2996 RMK A01 T02390147  RH  056%=      5-min Rain = 0
KNH1 201037Z 17010KT 24/15 A2996 RMK A01 T02390146  RH  056%=      5-min Rain = 0
KNH1 201038Z 18009KT 24/15 A2996 RMK A01 T02390146  RH  056%=      5-min Rain = 0
KNH1 201039Z 18010KT 24/15 A2996 RMK A01 T02390147  RH  056%=      5-min Rain = 0
KNH1 201040Z 18010KT 24/15 A2996 RMK A01 T02390147  RH  056%=      5-min Rain = 0
KNH1 201041Z 17009KT 24/15 A2996 RMK A01 T02390147  RH  056%=      5-min Rain = 0
KNH1 201042Z 18010KT 24/15 A2996 RMK A01 T02390148  RH  057%=      5-min Rain = 0
KNH1 201043Z 17010KT 24/15 A2996 RMK A01 T02390148  RH  057%=      5-min Rain = 0
KNH1 201044Z 18010KT 24/15 A2996 RMK A01 T02390148  RH  057%=      5-min Rain = 0
KNH1 201045Z 18010KT 24/15 A2996 RMK A01 T02390148  RH  057%=      5-min Rain = 0
KNH1 201046Z 18011KT 24/15 A2996 RMK A01 T02390148  RH  057%=      5-min Rain = 0
KNH1 201047Z 18010KT 24/15 A2997 RMK A01 T02380148  RH  057%=      5-min Rain = 0
KNH1 201048Z 18009KT 24/15 A2997 RMK A01 T02390148  RH  057%=      5-min Rain = 0
KNH1 201049Z 18009KT 24/15 A2997 RMK A01 T02380148  RH  057%=      5-min Rain = 0
KNH1 201050Z 18008KT 24/15 A2997 RMK A01 T02380148  RH  057%=      5-min Rain = 0
KNH1 201051Z 18008G13KT 24/15 A2997 RMK A01 T02370148  RH  057%=      5-min Rain = 0
KNH1 201052Z 18009KT 24/15 A2997 RMK A01 T02370148  RH  057%=      5-min Rain = 0
KNH1 201053Z 18009KT 24/15 A2997 RMK A01 T02370148  RH  057%=      5-min Rain = 0
KNH1 201054Z 18010KT 24/15 A2997 RMK A01 T02370148  RH  058%=      5-min Rain = 0
KNH1 201055Z 18010KT 24/15 A2997 RMK A01 T02370148  RH  058%=      5-min Rain = 0
KNH1 201056Z 18009KT 24/15 A2997 RMK A01 T02370149  RH  058%=      5-min Rain = 0
KNH1 201057Z 18011KT 24/15 A2997 RMK A01 T02360149  RH  058%=      5-min Rain = 0
KNH1 201058Z 18009KT 24/15 A2997 RMK A01 T02360149  RH  058%=      5-min Rain = 0
KNH1 201059Z 18010KT 24/15 A2997 RMK A01 T02360149  RH  058%=      5-min Rain = 0
KNH1 201100Z 18010KT 24/15 A2997 RMK A01 T02350149  RH  058%=      5-min Rain = 0
KNH1 201101Z 18010KT 24/15 A2997 RMK A01 T02360149  RH  058%=      5-min Rain = 0
KNH1 201102Z 18011KT 24/15 A2997 RMK A01 T02360149  RH  058%=      5-min Rain = 0
KNH1 201103Z 18010KT 24/15 A2997 RMK A01 T02350149  RH  058%=      5-min Rain = 0
KNH1 201104Z 18010KT 24/15 A2997 RMK A01 T02350150  RH  059%=      5-min Rain = 0
KNH1 201105Z 18009KT 24/15 A2997 RMK A01 T02350150  RH  059%=      5-min Rain = 0
KNH1 201106Z 18009KT 24/15 A2997 RMK A01 T02350150  RH  059%=      5-min Rain = 0
KNH1 201107Z 18008KT 23/15 A2997 RMK A01 T02340150  RH  059%=      5-min Rain = 0
KNH1 201108Z 18010KT 23/15 A2997 RMK A01 T02340150  RH  059%=      5-min Rain = 0
KNH1 201109Z 18009KT 23/15 A2997 RMK A01 T02340150  RH  059%=      5-min Rain = 0
KNH1 201110Z 18009KT 23/15 A2997 RMK A01 T02330150  RH  060%=      5-min Rain = 0
KNH1 201111Z 18010KT 23/15 A2997 RMK A01 T02330151  RH  060%=      5-min Rain = 0
KNH1 201112Z 18008KT 23/15 A2997 RMK A01 T02330151  RH  060%=      5-min Rain = 0
KNH1 201113Z 18011KT 23/15 A2997 RMK A01 T02320151  RH  060%=      5-min Rain = 0
KNH1 201114Z 17009KT 23/15 A2997 RMK A01 T02330151  RH  060%=      5-min Rain = 0
KNH1 201115Z 17008G13KT 23/15 A2997 RMK A01 T02330151  RH  060%=      5-min Rain = 0
KNH1 201116Z 18008KT 23/15 A2997 RMK A01 T02330151  RH  060%=      5-min Rain = 0
KNH1 201117Z 18009KT 23/15 A2997 RMK A01 T02330151  RH  060%=      5-min Rain = 0
KNH1 201118Z 18008KT 23/15 A2997 RMK A01 T02330152  RH  060%=      5-min Rain = 0
KNH1 201119Z 17009KT 23/15 A2996 RMK A01 T02330151  RH  060%=      5-min Rain = 0
KNH1 201120Z 18010KT 23/15 A2996 RMK A01 T02330152  RH  060%=      5-min Rain = 0
KNH1 201121Z 18009KT 23/15 A2996 RMK A01 T02330152  RH  060%=      5-min Rain = 0
KNH1 201122Z 17007KT 23/15 A2997 RMK A01 T02330152  RH  060%=      5-min Rain = 0
KNH1 201123Z 17008KT 23/15 A2997 RMK A01 T02330152  RH  060%=      5-min Rain = 0
KNH1 201124Z 18010KT 23/15 A2997 RMK A01 T02330153  RH  061%=      5-min Rain = 0
KNH1 201125Z 18010KT 23/15 A2997 RMK A01 T02320153  RH  061%=      5-min Rain = 0
KNH1 201126Z 17009KT 23/15 A2997 RMK A01 T02320152  RH  061%=      5-min Rain = 0
KNH1 201127Z 18008KT 23/15 A2997 RMK A01 T02330153  RH  061%=      5-min Rain = 0
KNH1 201128Z 18009KT 23/15 A2997 RMK A01 T02320153  RH  061%=      5-min Rain = 0
KNH1 201129Z 18009KT 23/15 A2997 RMK A01 T02320153  RH  061%=      5-min Rain = 0
KNH1 201130Z 18008KT 23/15 A2997 RMK A01 T02320153  RH  061%=      5-min Rain = 0
KNH1 201131Z 18009KT 23/15 A2997 RMK A01 T02310153  RH  061%=      5-min Rain = 0
KNH1 201132Z 18010KT 23/15 A2997 RMK A01 T02310153  RH  061%=      5-min Rain = 0
KNH1 201133Z 18008KT 23/15 A2997 RMK A01 T02320154  RH  062%=      5-min Rain = 0
KNH1 201134Z 18008KT 23/15 A2997 RMK A01 T02310154  RH  062%=      5-min Rain = 0
KNH1 201135Z 18008G13KT 23/15 A2997 RMK A01 T02310154  RH  062%=      5-min Rain = 0
KNH1 201136Z 17008KT 23/15 A2997 RMK A01 T02310154  RH  062%=      5-min Rain = 0
KNH1 201137Z 18010KT 23/15 A2997 RMK A01 T02310154  RH  062%=      5-min Rain = 0
KNH1 201138Z 18008KT 23/15 A2997 RMK A01 T02310154  RH  062%=      5-min Rain = 0
KNH1 201139Z 18008KT 23/16 A2997 RMK A01 T02310155  RH  062%=      5-min Rain = 0
KNH1 201140Z 17008KT 23/15 A2997 RMK A01 T02310154  RH  062%=      5-min Rain = 0
KNH1 201141Z 18009KT 23/16 A2997 RMK A01 T02310155  RH  062%=      5-min Rain = 0
KNH1 201142Z 18009KT 23/15 A2997 RMK A01 T02300154  RH  062%=      5-min Rain = 0
KNH1 201143Z 18009KT 23/16 A2997 RMK A01 T02300155  RH  062%=      5-min Rain = 0
KNH1 201144Z 18009KT 23/16 A2997 RMK A01 T02300155  RH  063%=      5-min Rain = 0
KNH1 201145Z 18009KT 23/16 A2997 RMK A01 T02300155  RH  063%=      5-min Rain = 0
KNH1 201146Z 18009KT 23/16 A2997 RMK A01 T02300155  RH  063%=      5-min Rain = 0
KNH1 201147Z 18010KT 23/16 A2997 RMK A01 T02300155  RH  063%=      5-min Rain = 0
KNH1 201148Z 18009KT 23/16 A2997 RMK A01 T02300156  RH  063%=      5-min Rain = 0
KNH1 201149Z 18010KT 23/16 A2997 RMK A01 T02300156  RH  063%=      5-min Rain = 0
KNH1 201150Z 18009KT 23/16 A2997 RMK A01 T02300156  RH  063%=      5-min Rain = 0
KNH1 201151Z 18010KT 23/16 A2997 RMK A01 T02300156  RH  063%=      5-min Rain = 0
KNH1 201152Z 18009KT 23/16 A2997 RMK A01 T02300156  RH  063%=      5-min Rain = 0
KNH1 201153Z 18011KT 23/16 A2997 RMK A01 T02300156  RH  063%=      5-min Rain = 0
KNH1 201154Z 18012KT 23/16 A2997 RMK A01 T02290157  RH  064%=      5-min Rain = 0
KNH1 201155Z 18011KT 23/16 A2997 RMK A01 T02290157  RH  064%=      5-min Rain = 0
KNH1 201156Z 18010KT 23/16 A2997 RMK A01 T02290157  RH  064%=      5-min Rain = 0
KNH1 201157Z 18010KT 23/16 A2997 RMK A01 T02290157  RH  064%=      5-min Rain = 0
KNH1 201158Z 18011KT 23/16 A2997 RMK A01 T02300157  RH  064%=      5-min Rain = 0
KNH1 201159Z 18011KT 23/16 A2997 RMK A01 T02300157  RH  064%=      5-min Rain = 0
KNH1 201200Z 18010KT 23/16 A2997 RMK A01 T02300157  RH  064%=      5-min Rain = 0
KNH1 201201Z 18011KT 23/16 A2997 RMK A01 T02300157  RH  064%=      5-min Rain = 0
KNH1 201202Z 18010KT 23/16 A2997 RMK A01 T02300158  RH  064%=      5-min Rain = 0
KNH1 201203Z 18010KT 23/16 A2997 RMK A01 T02300158  RH  064%=      5-min Rain = 0
KNH1 201204Z 18010KT 23/16 A2997 RMK A01 T02290158  RH  064%=      5-min Rain = 0
KNH1 201205Z 18011KT 23/16 A2997 RMK A01 T02290158  RH  064%=      5-min Rain = 0
KNH1 201206Z 18011KT 23/16 A2997 RMK A01 T02290159  RH  064%=      5-min Rain = 0
KNH1 201207Z 18012KT 23/16 A2997 RMK A01 T02290159  RH  064%=      5-min Rain = 0
KNH1 201208Z 18011KT 23/16 A2997 RMK A01 T02300159  RH  064%=      5-min Rain = 0
KNH1 201209Z 18010KT 23/16 A2997 RMK A01 T02300159  RH  064%=      5-min Rain = 0
KNH1 201210Z 18010KT 23/16 A2997 RMK A01 T02310159  RH  064%=      5-min Rain = 0
KNH1 201211Z 18011KT 23/16 A2997 RMK A01 T02310160  RH  064%=      5-min Rain = 0
KNH1 201212Z 19010KT 23/16 A2997 RMK A01 T02310160  RH  064%=      5-min Rain = 0
KNH1 201213Z 18010KT 23/16 A2997 RMK A01 T02300159  RH  064%=      5-min Rain = 0
KNH1 201214Z 19010KT 23/16 A2997 RMK A01 T02300159  RH  064%=      5-min Rain = 0
KNH1 201215Z 19010KT 23/16 A2997 RMK A01 T02300159  RH  065%=      5-min Rain = 0
KNH1 201216Z 19010KT 23/16 A2997 RMK A01 T02290160  RH  065%=      5-min Rain = 0
KNH1 201217Z 18012KT 23/16 A2997 RMK A01 T02290160  RH  065%=      5-min Rain = 0
KNH1 201218Z 18011KT 23/16 A2997 RMK A01 T02300160  RH  065%=      5-min Rain = 0
KNH1 201219Z 18012KT 23/16 A2997 RMK A01 T02300160  RH  065%=      5-min Rain = 0
KNH1 201220Z 18011KT 23/16 A2997 RMK A01 T02300161  RH  065%=      5-min Rain = 0
KNH1 201221Z 18010KT 23/16 A2997 RMK A01 T02300161  RH  065%=      5-min Rain = 0
KNH1 201222Z 18011KT 23/16 A2997 RMK A01 T02300161  RH  065%=      5-min Rain = 0
KNH1 201223Z 18011KT 23/16 A2997 RMK A01 T02310161  RH  065%=      5-min Rain = 0
KNH1 201224Z 18010KT 23/16 A2997 RMK A01 T02310162  RH  065%=      5-min Rain = 0
KNH1 201225Z 19010KT 23/16 A2997 RMK A01 T02310162  RH  065%=      5-min Rain = 0
KNH1 201226Z 18010KT 23/16 A2997 RMK A01 T02310162  RH  065%=      5-min Rain = 0
KNH1 201227Z 19010KT 23/16 A2997 RMK A01 T02310162  RH  065%=      5-min Rain = 0
KNH1 201228Z 18010KT 23/16 A2997 RMK A01 T02310163  RH  065%=      5-min Rain = 0
KNH1 201229Z 19011KT 23/16 A2997 RMK A01 T02310163  RH  065%=      5-min Rain = 0
KNH1 201230Z 19012KT 23/16 A2997 RMK A01 T02310163  RH  065%=      5-min Rain = 0
KNH1 201231Z 19012KT 23/16 A2997 RMK A01 T02320163  RH  065%=      5-min Rain = 0
KNH1 201232Z 18010KT 23/16 A2997 RMK A01 T02320164  RH  065%=      5-min Rain = 0
KNH1 201233Z 18011KT 23/16 A2997 RMK A01 T02320163  RH  065%=      5-min Rain = 0
KNH1 201234Z 18011KT 23/16 A2997 RMK A01 T02320163  RH  065%=      5-min Rain = 0
KNH1 201235Z 18009KT 23/16 A2997 RMK A01 T02320163  RH  065%=      5-min Rain = 0
KNH1 201236Z 19009KT 23/16 A2997 RMK A01 T02320164  RH  065%=      5-min Rain = 0
KNH1 201237Z 18010KT 23/16 A2997 RMK A01 T02320164  RH  066%=      5-min Rain = 0
KNH1 201238Z 18009KT 23/16 A2997 RMK A01 T02320164  RH  066%=      5-min Rain = 0
KNH1 201239Z 18011KT 23/16 A2997 RMK A01 T02320164  RH  066%=      5-min Rain = 0
KNH1 201240Z 18011G16KT 23/17 A2997 RMK A01 T02330165  RH  066%=      5-min Rain = 0
KNH1 201241Z 18010KT 23/17 A2997 RMK A01 T02330165  RH  065%=      5-min Rain = 0
KNH1 201242Z 18011KT 23/17 A2997 RMK A01 T02340166  RH  065%=      5-min Rain = 0
KNH1 201243Z 18008KT 23/17 A2997 RMK A01 T02340165  RH  065%=      5-min Rain = 0
KNH1 201244Z 18008KT 24/17 A2997 RMK A01 T02350166  RH  065%=      5-min Rain = 0
KNH1 201245Z 18010KT 24/17 A2997 RMK A01 T02350166  RH  065%=      5-min Rain = 0
KNH1 201246Z 18011KT 24/17 A2997 RMK A01 T02350166  RH  065%=      5-min Rain = 0
KNH1 201247Z 19011KT 24/17 A2997 RMK A01 T02350166  RH  065%=      5-min Rain = 0
KNH1 201248Z 18013KT 24/17 A2998 RMK A01 T02350166  RH  065%=      5-min Rain = 0
KNH1 201249Z 18011KT 24/17 A2998 RMK A01 T02350166  RH  065%=      5-min Rain = 0
KNH1 201250Z 19011KT 24/17 A2998 RMK A01 T02360167  RH  065%=      5-min Rain = 0
KNH1 201251Z 18009KT 24/17 A2998 RMK A01 T02360167  RH  065%=      5-min Rain = 0
KNH1 201252Z 18011KT 24/17 A2998 RMK A01 T02360168  RH  065%=      5-min Rain = 0
KNH1 201253Z 19012KT 24/17 A2998 RMK A01 T02360167  RH  065%=      5-min Rain = 0
KNH1 201254Z 18011KT 24/17 A2998 RMK A01 T02370168  RH  065%=      5-min Rain = 0
KNH1 201255Z 18009KT 24/17 A2998 RMK A01 T02370168  RH  065%=      5-min Rain = 0
KNH1 201256Z 19011KT 24/17 A2998 RMK A01 T02370169  RH  065%=      5-min Rain = 0
KNH1 201257Z 18010KT 24/17 A2998 RMK A01 T02380168  RH  065%=      5-min Rain = 0
KNH1 201258Z 19009KT 24/17 A2998 RMK A01 T02380169  RH  065%=      5-min Rain = 0
KNH1 201259Z 18011KT 24/17 A2998 RMK A01 T02380169  RH  065%=      5-min Rain = 0
KNH1 201300Z 19015KT 24/17 A2998 RMK A01 T02390169  RH  065%=      5-min Rain = 0
KNH1 201301Z 18012KT 24/17 A2998 RMK A01 T02390169  RH  065%=      5-min Rain = 0
KNH1 201302Z 19011KT 24/17 A2998 RMK A01 T02390169  RH  065%=      5-min Rain = 0
KNH1 201303Z 18011KT 24/17 A2998 RMK A01 T02400170  RH  065%=      5-min Rain = 0
KNH1 201304Z 19011KT 24/17 A2998 RMK A01 T02400170  RH  065%=      5-min Rain = 0
KNH1 201305Z 18012KT 24/17 A2998 RMK A01 T02400170  RH  065%=      5-min Rain = 0
KNH1 201306Z 19014KT 24/17 A2998 RMK A01 T02410170  RH  065%=      5-min Rain = 0
KNH1 201307Z 18012KT 24/17 A2998 RMK A01 T02410170  RH  064%=      5-min Rain = 0
KNH1 201308Z 19011KT 24/17 A2998 RMK A01 T02410171  RH  065%=      5-min Rain = 0
KNH1 201309Z 19011KT 24/17 A2998 RMK A01 T02420171  RH  065%=      5-min Rain = 0
KNH1 201310Z 19012KT 24/17 A2998 RMK A01 T02430172  RH  064%=      5-min Rain = 0
KNH1 201311Z 18014KT 24/17 A2998 RMK A01 T02430171  RH  064%=      5-min Rain = 0
KNH1 201312Z 19013G18KT 24/17 A2998 RMK A01 T02430171  RH  064%=      5-min Rain = 0
KNH1 201313Z 19014KT 24/17 A2998 RMK A01 T02430171  RH  064%=      5-min Rain = 0
KNH1 201314Z 18013KT 24/17 A2998 RMK A01 T02440172  RH  064%=      5-min Rain = 0
KNH1 201315Z 19012KT 24/17 A2998 RMK A01 T02440172  RH  064%=      5-min Rain = 0
KNH1 201316Z 19012KT 24/17 A2998 RMK A01 T02440172  RH  064%=      5-min Rain = 0
KNH1 201317Z 18012KT 25/17 A2998 RMK A01 T02450173  RH  064%=      5-min Rain = 0
KNH1 201318Z 18011KT 25/17 A2998 RMK A01 T02450173  RH  064%=      5-min Rain = 0
KNH1 201319Z 18012KT 25/17 A2998 RMK A01 T02460174  RH  064%=      5-min Rain = 0
KNH1 201320Z 19012KT 25/17 A2998 RMK A01 T02460173  RH  064%=      5-min Rain = 0
KNH1 201321Z 18013KT 25/17 A2998 RMK A01 T02460173  RH  064%=      5-min Rain = 0
KNH1 201322Z 19012KT 25/17 A2998 RMK A01 T02460173  RH  064%=      5-min Rain = 0
KNH1 201323Z 19011KT 25/17 A2998 RMK A01 T02470174  RH  064%=      5-min Rain = 0
KNH1 201324Z 18012KT 25/17 A2998 RMK A01 T02470174  RH  064%=      5-min Rain = 0
KNH1 201325Z 19013KT 25/17 A2998 RMK A01 T02470174  RH  064%=      5-min Rain = 0
KNH1 201326Z 19013KT 25/17 A2998 RMK A01 T02480174  RH  064%=      5-min Rain = 0
KNH1 201327Z 19014KT 25/17 A2998 RMK A01 T02480174  RH  064%=      5-min Rain = 0
KNH1 201328Z 19013KT 25/17 A2998 RMK A01 T02480174  RH  064%=      5-min Rain = 0
KNH1 201329Z 19016KT 25/17 A2998 RMK A01 T02480174  RH  063%=      5-min Rain = 0
KNH1 201330Z 19012G18KT 25/17 A2998 RMK A01 T02480174  RH  063%=      5-min Rain = 0
KNH1 201331Z 19014KT 25/17 A2998 RMK A01 T02490174  RH  063%=      5-min Rain = 0
KNH1 201332Z 19014KT 25/17 A2998 RMK A01 T02490174  RH  063%=      5-min Rain = 0
KNH1 201333Z 19012KT 25/18 A2998 RMK A01 T02490175  RH  063%=      5-min Rain = 0
KNH1 201334Z 18015KT 25/18 A2998 RMK A01 T02500175  RH  063%=      5-min Rain = 0
KNH1 201335Z 19013KT 25/18 A2998 RMK A01 T02510175  RH  063%=      5-min Rain = 0
KNH1 201336Z 19015KT 25/17 A2998 RMK A01 T02510174  RH  062%=      5-min Rain = 0
KNH1 201337Z 19014KT 25/18 A2998 RMK A01 T02510175  RH  063%=      5-min Rain = 0
KNH1 201338Z 19015KT 25/18 A2998 RMK A01 T02520176  RH  062%=      5-min Rain = 0
KNH1 201339Z 19015KT 25/18 A2998 RMK A01 T02520175  RH  062%=      5-min Rain = 0
KNH1 201340Z 19013KT 25/18 A2998 RMK A01 T02520176  RH  062%=      5-min Rain = 0
KNH1 201341Z 20016KT 25/18 A2998 RMK A01 T02530175  RH  062%=      5-min Rain = 0
KNH1 201342Z 19016KT 25/18 A2998 RMK A01 T02530175  RH  062%=      5-min Rain = 0
KNH1 201343Z 19014KT 25/18 A2998 RMK A01 T02530175  RH  062%=      5-min Rain = 0
KNH1 201344Z 19017KT 25/18 A2998 RMK A01 T02530175  RH  062%=      5-min Rain = 0
KNH1 201345Z 19013KT 25/18 A2998 RMK A01 T02540175  RH  062%=      5-min Rain = 0
KNH1 201346Z 19016KT 26/18 A2998 RMK A01 T02550176  RH  062%=      5-min Rain = 0
KNH1 201347Z 20017KT 26/18 A2998 RMK A01 T02550175  RH  061%=      5-min Rain = 0
KNH1 201348Z 19012KT 26/18 A2998 RMK A01 T02550176  RH  062%=      5-min Rain = 0
KNH1 201349Z 19014KT 26/18 A2998 RMK A01 T02560176  RH  061%=      5-min Rain = 0
KNH1 201350Z 19016G21KT 26/18 A2998 RMK A01 T02560175  RH  061%=      5-min Rain = 0
KNH1 201351Z 20014KT 26/18 A2998 RMK A01 T02560176  RH  061%=      5-min Rain = 0
KNH1 201352Z 19015KT 26/18 A2998 RMK A01 T02560176  RH  061%=      5-min Rain = 0
KNH1 201353Z 19013KT 26/18 A2998 RMK A01 T02570176  RH  061%=      5-min Rain = 0
KNH1 201354Z 19016KT 26/18 A2998 RMK A01 T02580175  RH  060%=      5-min Rain = 0
KNH1 201355Z 19018KT 26/18 A2998 RMK A01 T02580175  RH  060%=      5-min Rain = 0
KNH1 201356Z 19016KT 26/18 A2998 RMK A01 T02580175  RH  060%=      5-min Rain = 0
KNH1 201357Z 19016KT 26/18 A2998 RMK A01 T02580175  RH  060%=      5-min Rain = 0
KNH1 201358Z 19017KT 26/18 A2998 RMK A01 T02570175  RH  060%=      5-min Rain = 0
KNH1 201359Z 19015KT 26/18 A2998 RMK A01 T02570175  RH  061%=      5-min Rain = 0
KNH1 201400Z 19015KT 26/18 A2998 RMK A01 T02580176  RH  061%=      5-min Rain = 0
KNH1 201401Z 18015G22KT 26/18 A2998 RMK A01 T02590176  RH  060%=      5-min Rain = 0
KNH1 201402Z 19018KT 26/18 A2999 RMK A01 T02600176  RH  060%=      5-min Rain = 0
KNH1 201403Z 18017KT 26/18 A2998 RMK A01 T02590176  RH  060%=      5-min Rain = 0
KNH1 201404Z 18018KT 26/18 A2998 RMK A01 T02590175  RH  060%=      5-min Rain = 0
KNH1 201405Z 19016KT 26/18 A2998 RMK A01 T02590175  RH  060%=      5-min Rain = 0
KNH1 201406Z 18014G19KT 26/18 A2998 RMK A01 T02600176  RH  060%=      5-min Rain = 0
KNH1 201407Z 19019KT 26/18 A2998 RMK A01 T02600176  RH  060%=      5-min Rain = 0
KNH1 201408Z 18018KT 26/17 A2998 RMK A01 T02600174  RH  059%=      5-min Rain = 0
KNH1 201409Z 19017KT 26/18 A2998 RMK A01 T02600175  RH  059%=      5-min Rain = 0
KNH1 201410Z 19019KT 26/18 A2998 RMK A01 T02600175  RH  059%=      5-min Rain = 0
KNH1 201411Z 19019KT 26/17 A2998 RMK A01 T02610174  RH  059%=      5-min Rain = 0
KNH1 201412Z 19016KT 26/18 A2998 RMK A01 T02610175  RH  059%=      5-min Rain = 0
KNH1 201413Z 19016KT 26/18 A2998 RMK A01 T02620175  RH  059%=      5-min Rain = 0
KNH1 201414Z 20016KT 26/18 A2998 RMK A01 T02620175  RH  059%=      5-min Rain = 0
KNH1 201415Z 19017KT 26/18 A2998 RMK A01 T02630175  RH  059%=      5-min Rain = 0
KNH1 201416Z 19015KT 26/18 A2998 RMK A01 T02630176  RH  059%=      5-min Rain = 0
KNH1 201417Z 18016KT 26/18 A2998 RMK A01 T02630176  RH  059%=      5-min Rain = 0
KNH1 201418Z 18014KT 26/18 A2998 RMK A01 T02640175  RH  058%=      5-min Rain = 0
KNH1 201419Z 19015G20KT 27/18 A2998 RMK A01 T02650176  RH  058%=      5-min Rain = 0
KNH1 201420Z 18015KT 27/18 A2998 RMK A01 T02650176  RH  058%=      5-min Rain = 0
KNH1 201421Z 19014KT 27/18 A2998 RMK A01 T02660176  RH  058%=      5-min Rain = 0
KNH1 201422Z 20017KT 27/18 A2998 RMK A01 T02660177  RH  058%=      5-min Rain = 0
KNH1 201423Z 19015KT 27/18 A2998 RMK A01 T02660178  RH  058%=      5-min Rain = 0
KNH1 201424Z 19013KT 27/18 A2998 RMK A01 T02650178  RH  059%=      5-min Rain = 0
KNH1 201425Z 19016KT 27/18 A2998 RMK A01 T02660178  RH  058%=      5-min Rain = 0
KNH1 201426Z 19016KT 27/18 A2998 RMK A01 T02670176  RH  057%=      5-min Rain = 0
KNH1 201427Z 19015KT 27/18 A2998 RMK A01 T02670177  RH  058%=      5-min Rain = 0
KNH1 201428Z 19014KT 27/18 A2998 RMK A01 T02670178  RH  058%=      5-min Rain = 0
KNH1 201429Z 20016KT 27/18 A2998 RMK A01 T02690177  RH  057%=      5-min Rain = 0
KNH1 201430Z 19015G20KT 27/18 A2998 RMK A01 T02690177  RH  057%=      5-min Rain = 0
KNH1 201431Z 19017KT 27/18 A2998 RMK A01 T02690176  RH  057%=      5-min Rain = 0
KNH1 201432Z 19018KT 27/18 A2998 RMK A01 T02690175  RH  056%=      5-min Rain = 0
KNH1 201433Z 19019KT 27/18 A2998 RMK A01 T02680175  RH  057%=      5-min Rain = 0
KNH1 201434Z 19016G22KT 27/18 A2998 RMK A01 T02680175  RH  057%=      5-min Rain = 0
KNH1 201435Z 19017KT 27/18 A2998 RMK A01 T02680176  RH  057%=      5-min Rain = 0
KNH1 201436Z 19019KT 27/17 A2998 RMK A01 T02680174  RH  056%=      5-min Rain = 0
KNH1 201437Z 19016G21KT 27/18 A2998 RMK A01 T02680175  RH  057%=      5-min Rain = 0
KNH1 201438Z 19016G21KT 27/18 A2998 RMK A01 T02680175  RH  057%=      5-min Rain = 0
KNH1 201439Z 19018KT 27/17 A2998 RMK A01 T02690174  RH  056%=      5-min Rain = 0
KNH1 201440Z 19016KT 27/18 A2998 RMK A01 T02690175  RH  056%=      5-min Rain = 0
KNH1 201441Z 18017KT 27/18 A2998 RMK A01 T02700175  RH  056%=      5-min Rain = 0
KNH1 201442Z 18015KT 27/17 A2998 RMK A01 T02700174  RH  056%=      5-min Rain = 0
KNH1 201443Z 19016G22KT 27/18 A2998 RMK A01 T02700175  RH  056%=      5-min Rain = 0
KNH1 201444Z 19016KT 27/17 A2998 RMK A01 T02710174  RH  055%=      5-min Rain = 0
KNH1 201445Z 19018KT 27/17 A2998 RMK A01 T02720174  RH  055%=      5-min Rain = 0
KNH1 201446Z 19015G20KT 27/18 A2998 RMK A01 T02720175  RH  055%=      5-min Rain = 0
KNH1 201447Z 19014KT 27/18 A2998 RMK A01 T02730177  RH  056%=      5-min Rain = 0
KNH1 201448Z 20014KT 27/18 A2998 RMK A01 T02740175  RH  055%=      5-min Rain = 0
KNH1 201449Z 19013KT 27/18 A2998 RMK A01 T02740176  RH  055%=      5-min Rain = 0
KNH1 201450Z 19013G18KT 28/18 A2998 RMK A01 T02750177  RH  055%=      5-min Rain = 0
KNH1 201451Z 18015G20KT 28/18 A2998 RMK A01 T02760176  RH  054%=      5-min Rain = 0
KNH1 201452Z 19014KT 28/18 A2998 RMK A01 T02770176  RH  054%=      5-min Rain = 0
KNH1 201453Z 19013KT 28/18 A2998 RMK A01 T02770177  RH  054%=      5-min Rain = 0
KNH1 201454Z 20016KT 28/18 A2998 RMK A01 T02770176  RH  054%=      5-min Rain = 0
KNH1 201455Z 19012KT 28/18 A2998 RMK A01 T02770177  RH  054%=      5-min Rain = 0
KNH1 201456Z 20014KT 28/18 A2998 RMK A01 T02780177  RH  054%=      5-min Rain = 0
KNH1 201457Z 19014KT 28/18 A2998 RMK A01 T02790176  RH  054%=      5-min Rain = 0
KNH1 201458Z 19015KT 28/18 A2998 RMK A01 T02790175  RH  053%=      5-min Rain = 0
KNH1 201459Z 19015KT 28/17 A2998 RMK A01 T02790174  RH  053%=      5-min Rain = 0
KNH1 201500Z 19011KT 28/18 A2998 RMK A01 T02770175  RH  054%=      5-min Rain = 0
KNH1 201501Z 19017KT 28/18 A2998 RMK A01 T02790175  RH  053%=      5-min Rain = 0
KNH1 201502Z 19013KT 28/17 A2998 RMK A01 T02790174  RH  053%=      5-min Rain = 0
KNH1 201503Z 18011KT 28/18 A2998 RMK A01 T02800175  RH  053%=      5-min Rain = 0
KNH1 201504Z 19015KT 28/17 A2998 RMK A01 T02810174  RH  052%=      5-min Rain = 0
KNH1 201505Z 18016KT 28/17 A2998 RMK A01 T02810174  RH  052%=      5-min Rain = 0
KNH1 201506Z 19016KT 28/17 A2998 RMK A01 T02790174  RH  053%=      5-min Rain = 0
KNH1 201507Z 18016KT 28/17 A2998 RMK A01 T02790174  RH  053%=      5-min Rain = 0
KNH1 201508Z 19015KT 28/18 A2998 RMK A01 T02800175  RH  053%=      5-min Rain = 0
KNH1 201509Z 19016KT 28/17 A2998 RMK A01 T02810174  RH  052%=      5-min Rain = 0
KNH1 201510Z 19015KT 28/18 A2998 RMK A01 T02810175  RH  052%=      5-min Rain = 0
KNH1 201511Z 20014KT 28/17 A2998 RMK A01 T02810174  RH  052%=      5-min Rain = 0
KNH1 201512Z 19015KT 28/17 A2998 RMK A01 T02810174  RH  052%=      5-min Rain = 0
KNH1 201513Z 19016KT 28/17 A2998 RMK A01 T02820174  RH  052%=      5-min Rain = 0
KNH1 201514Z 20014KT 28/18 A2998 RMK A01 T02830175  RH  052%=      5-min Rain = 0
KNH1 201515Z 19015KT 28/18 A2998 RMK A01 T02830175  RH  052%=      5-min Rain = 0
KNH1 201516Z 19015KT 28/17 A2998 RMK A01 T02840174  RH  051%=      5-min Rain = 0
KNH1 201517Z 19013KT 28/17 A2998 RMK A01 T02820174  RH  052%=      5-min Rain = 0
KNH1 201518Z 19014KT 28/18 A2998 RMK A01 T02820176  RH  053%=      5-min Rain = 0
KNH1 201519Z 19014KT 28/18 A2998 RMK A01 T02840175  RH  051%=      5-min Rain = 0
KNH1 201520Z 18015KT 28/18 A2998 RMK A01 T02840175  RH  052%=      5-min Rain = 0
KNH1 201521Z 18014KT 29/17 A2998 RMK A01 T02850173  RH  051%=      5-min Rain = 0
KNH1 201522Z 18012G17KT 28/17 A2998 RMK A01 T02840173  RH  051%=      5-min Rain = 0
KNH1 201523Z 19014KT 28/18 A2998 RMK A01 T02830175  RH  052%=      5-min Rain = 0
KNH1 201524Z 20013KT 28/18 A2998 RMK A01 T02840177  RH  052%=      5-min Rain = 0
KNH1 201525Z 19016KT 29/18 A2998 RMK A01 T02870175  RH  051%=      5-min Rain = 0
KNH1 201526Z 19017KT 29/17 A2998 RMK A01 T02860173  RH  050%=      5-min Rain = 0
KNH1 201527Z 19016KT 29/17 A2998 RMK A01 T02850173  RH  050%=      5-min Rain = 0
KNH1 201528Z 20018KT 29/17 A2998 RMK A01 T02860173  RH  051%=      5-min Rain = 0
KNH1 201529Z 20016KT 29/17 A2998 RMK A01 T02860173  RH  051%=      5-min Rain = 0
KNH1 201530Z 20015KT 29/17 A2998 RMK A01 T02860174  RH  051%=      5-min Rain = 0
KNH1 201531Z 20014KT 29/18 A2998 RMK A01 T02870175  RH  051%=      5-min Rain = 0
KNH1 201532Z 20013KT 29/18 A2998 RMK A01 T02880177  RH  051%=      5-min Rain = 0
KNH1 201533Z 19014KT 29/18 A2998 RMK A01 T02900176  RH  050%=      5-min Rain = 0
KNH1 201534Z 19013G18KT 29/18 A2998 RMK A01 T02890176  RH  050%=      5-min Rain = 0
KNH1 201535Z 20015KT 29/18 A2998 RMK A01 T02900176  RH  050%=      5-min Rain = 0
KNH1 201536Z 20014KT 29/18 A2998 RMK A01 T02900175  RH  050%=      5-min Rain = 0
KNH1 201537Z 20013KT 29/18 A2998 RMK A01 T02900176  RH  050%=      5-min Rain = 0
KNH1 201538Z 20013KT 29/18 A2998 RMK A01 T02910177  RH  050%=      5-min Rain = 0
KNH1 201539Z 19014KT 29/18 A2998 RMK A01 T02920178  RH  050%=      5-min Rain = 0
KNH1 201540Z 19016KT 29/18 A2998 RMK A01 T02920175  RH  049%=      5-min Rain = 0
KNH1 201541Z 18015KT 29/18 A2998 RMK A01 T02900176  RH  050%=      5-min Rain = 0
KNH1 201542Z 19017KT 29/18 A2998 RMK A01 T02900176  RH  050%=      5-min Rain = 0
KNH1 201543Z 20013G18KT 29/18 A2998 RMK A01 T02900176  RH  050%=      5-min Rain = 0
KNH1 201544Z 20014KT 29/18 A2998 RMK A01 T02920179  RH  050%=      5-min Rain = 0
KNH1 201545Z 19012KT 29/18 A2998 RMK A01 T02940178  RH  049%=      5-min Rain = 0
KNH1 201546Z 19012KT 29/18 A2998 RMK A01 T02940177  RH  049%=      5-min Rain = 0
KNH1 201547Z 18013KT 29/18 A2997 RMK A01 T02940175  RH  049%=      5-min Rain = 0
KNH1 201548Z 18015KT 29/17 A2997 RMK A01 T02940174  RH  048%=      5-min Rain = 0
KNH1 201549Z 19012KT 29/18 A2997 RMK A01 T02930176  RH  049%=      5-min Rain = 0
KNH1 201550Z 18015KT 29/18 A2997 RMK A01 T02930175  RH  049%=      5-min Rain = 0
KNH1 201551Z 19018KT 29/17 A2997 RMK A01 T02930174  RH  049%=      5-min Rain = 0
KNH1 201552Z 19014KT 29/18 A2997 RMK A01 T02920175  RH  049%=      5-min Rain = 0
KNH1 201553Z 18016KT 29/18 A2997 RMK A01 T02930176  RH  049%=      5-min Rain = 0
KNH1 201554Z 17015KT 29/17 A2997 RMK A01 T02940173  RH  048%=      5-min Rain = 0
KNH1 201555Z 19014G19KT 29/18 A2997 RMK A01 T02930175  RH  049%=      5-min Rain = 0
KNH1 201556Z 19017KT 29/17 A2997 RMK A01 T02940174  RH  048%=      5-min Rain = 0
KNH1 201557Z 19014KT 29/17 A2998 RMK A01 T02940174  RH  048%=      5-min Rain = 0
KNH1 201558Z 19015KT 29/18 A2998 RMK A01 T02940175  RH  049%=      5-min Rain = 0
KNH1 201559Z 19012KT 29/18 A2997 RMK A01 T02940175  RH  049%=      5-min Rain = 0
KNH1 201600Z 20011KT 30/18 A2998 RMK A01 T02970177  RH  049%=      5-min Rain = 0
KNH1 201601Z 19013KT 30/18 A2998 RMK A01 T02990177  RH  048%=      5-min Rain = 0
KNH1 201602Z 19013KT 30/18 A2998 RMK A01 T03000175  RH  047%=      5-min Rain = 0
KNH1 201603Z 18012KT 30/18 A2997 RMK A01 T03000177  RH  048%=      5-min Rain = 0
KNH1 201604Z 19013KT 30/18 A2998 RMK A01 T03010178  RH  048%=      5-min Rain = 0
KNH1 201605Z 18009G14KT 30/18 A2998 RMK A01 T03020177  RH  047%=      5-min Rain = 0
KNH1 201606Z 19012KT 30/18 A2998 RMK A01 T03020178  RH  047%=      5-min Rain = 0
KNH1 201607Z 19013KT 30/18 A2997 RMK A01 T03020177  RH  047%=      5-min Rain = 0
KNH1 201608Z 18013KT 30/18 A2997 RMK A01 T03030176  RH  047%=      5-min Rain = 0
KNH1 201609Z 19014KT 30/18 A2997 RMK A01 T03030175  RH  046%=      5-min Rain = 0
KNH1 201610Z 19015KT 30/18 A2997 RMK A01 T03030176  RH  046%=      5-min Rain = 0
KNH1 201611Z 19011KT 30/18 A2998 RMK A01 T03020176  RH  047%=      5-min Rain = 0
KNH1 201612Z 17007KT 30/18 A2997 RMK A01 T03010175  RH  047%=      5-min Rain = 0
KNH1 201613Z 18012G17KT 30/18 A2997 RMK A01 T03010175  RH  047%=      5-min Rain = 0
KNH1 201614Z 19015KT 30/18 A2998 RMK A01 T03030176  RH  047%=      5-min Rain = 0
KNH1 201615Z 19013KT 30/18 A2998 RMK A01 T03030175  RH  046%=      5-min Rain = 0
KNH1 201616Z 18013KT 30/17 A2998 RMK A01 T03030174  RH  046%=      5-min Rain = 0
KNH1 201617Z 18014KT 30/18 A2998 RMK A01 T03030175  RH  046%=      5-min Rain = 0
KNH1 201618Z 18010KT 30/17 A2998 RMK A01 T03020173  RH  046%=      5-min Rain = 0
KNH1 201619Z 19011G16KT 30/18 A2998 RMK A01 T03020175  RH  047%=      5-min Rain = 0
KNH1 201620Z 19011KT 30/18 A2998 RMK A01 T03040179  RH  047%=      5-min Rain = 0
KNH1 201621Z 20012KT 31/18 A2998 RMK A01 T03080179  RH  046%=      5-min Rain = 0
KNH1 201622Z 18012KT 31/18 A2998 RMK A01 T03100177  RH  045%=      5-min Rain = 0
KNH1 201623Z 19013KT 31/18 A2998 RMK A01 T03100179  RH  046%=      5-min Rain = 0
KNH1 201624Z 20013KT 31/18 A2998 RMK A01 T03100178  RH  045%=      5-min Rain = 0
KNH1 201625Z 20014KT 31/18 A2998 RMK A01 T03100176  RH  045%=      5-min Rain = 0
KNH1 201626Z 21013KT 31/18 A2998 RMK A01 T03100175  RH  044%=      5-min Rain = 0
KNH1 201627Z 18013KT 31/18 A2998 RMK A01 T03090176  RH  045%=      5-min Rain = 0
KNH1 201628Z 18014KT 31/17 A2998 RMK A01 T03080174  RH  045%=      5-min Rain = 0
KNH1 201629Z 18009KT 31/18 A2998 RMK A01 T03080176  RH  045%=      5-min Rain = 0
KNH1 201630Z 18014KT 31/18 A2998 RMK A01 T03090175  RH  045%=      5-min Rain = 0
KNH1 201631Z 20012KT 31/18 A2998 RMK A01 T03090177  RH  045%=      5-min Rain = 0
KNH1 201632Z 19011KT 31/18 A2998 RMK A01 T03100180  RH  046%=      5-min Rain = 0
KNH1 201633Z 19013KT 31/18 A2998 RMK A01 T03120180  RH  045%=      5-min Rain = 0
KNH1 201634Z 19015KT 31/18 A2998 RMK A01 T03140177  RH  044%=      5-min Rain = 0
KNH1 201635Z 19014KT 31/18 A2998 RMK A01 T03120176  RH  044%=      5-min Rain = 0
KNH1 201636Z 20017KT 31/18 A2998 RMK A01 T03120175  RH  044%=      5-min Rain = 0
KNH1 201637Z 21015KT 31/17 A2998 RMK A01 T03110173  RH  044%=      5-min Rain = 0
KNH1 201638Z 19012KT 31/17 A2998 RMK A01 T03080173  RH  045%=      5-min Rain = 0
KNH1 201639Z 19014KT 31/18 A2998 RMK A01 T03080176  RH  045%=      5-min Rain = 0
KNH1 201640Z 18011KT 31/17 A2998 RMK A01 T03100174  RH  044%=      5-min Rain = 0
KNH1 201641Z 20012KT 31/18 A2998 RMK A01 T03100176  RH  045%=      5-min Rain = 0
KNH1 201642Z 19015KT 31/18 A2998 RMK A01 T03110176  RH  044%=      5-min Rain = 0
KNH1 201643Z 19014KT 31/18 A2998 RMK A01 T03120175  RH  044%=      5-min Rain = 0
KNH1 201644Z 19014KT 31/18 A2998 RMK A01 T03130175  RH  044%=      5-min Rain = 0
KNH1 201645Z 20012KT 31/18 A2998 RMK A01 T03140176  RH  044%=      5-min Rain = 0
KNH1 201646Z 20012G17KT 31/18 A2998 RMK A01 T03140177  RH  044%=      5-min Rain = 0
KNH1 201647Z 19012KT 32/18 A2998 RMK A01 T03150177  RH  044%=      5-min Rain = 0
KNH1 201648Z 20012KT 32/18 A2998 RMK A01 T03150176  RH  044%=      5-min Rain = 0
KNH1 201649Z 19016KT 31/18 A2998 RMK A01 T03140176  RH  044%=      5-min Rain = 0
KNH1 201650Z 19012KT 31/17 A2998 RMK A01 T03130173  RH  043%=      5-min Rain = 0
KNH1 201651Z 19011KT 31/18 A2998 RMK A01 T03120176  RH  044%=      5-min Rain = 0
KNH1 201652Z 19013G18KT 31/18 A2998 RMK A01 T03130176  RH  044%=      5-min Rain = 0
KNH1 201653Z 19014KT 31/18 A2998 RMK A01 T03130175  RH  044%=      5-min Rain = 0
KNH1 201654Z 19013KT 31/18 A2998 RMK A01 T03140176  RH  044%=      5-min Rain = 0
KNH1 201655Z 19010KT 32/18 A2998 RMK A01 T03150176  RH  043%=      5-min Rain = 0
KNH1 201656Z 18010KT 31/18 A2998 RMK A01 T03140175  RH  043%=      5-min Rain = 0
KNH1 201657Z 18015KT 31/17 A2998 RMK A01 T03140174  RH  043%=      5-min Rain = 0
KNH1 201658Z 19014KT 32/18 A2998 RMK A01 T03150175  RH  043%=      5-min Rain = 0
KNH1 201659Z 19012KT 32/18 A2998 RMK A01 T03160175  RH  043%=      5-min Rain = 0
KNH1 201700Z 19012KT 32/18 A2998 RMK A01 T03170176  RH  043%=      5-min Rain = 0
KNH1 201701Z 19014KT 32/18 A2998 RMK A01 T03190178  RH  043%=      5-min Rain = 0
KNH1 201702Z 17011KT 32/18 A2998 RMK A01 T03210177  RH  042%=      5-min Rain = 0
KNH1 201703Z 17011KT 32/17 A2998 RMK A01 T03210173  RH  041%=      5-min Rain = 0
KNH1 201704Z 18011KT 32/17 A2998 RMK A01 T03180174  RH  042%=      5-min Rain = 0
KNH1 201705Z 18010G16KT 32/18 A2998 RMK A01 T03180175  RH  042%=      5-min Rain = 0
KNH1 201706Z 18009KT 32/18 A2998 RMK A01 T03180176  RH  043%=      5-min Rain = 0
KNH1 201707Z 18009KT 32/18 A2998 RMK A01 T03210177  RH  042%=      5-min Rain = 0
KNH1 201708Z 19013KT 32/18 A2998 RMK A01 T03230179  RH  042%=      5-min Rain = 0
KNH1 201709Z 18013KT 32/18 A2998 RMK A01 T03230177  RH  042%=      5-min Rain = 0
KNH1 201710Z 18011KT 32/18 A2998 RMK A01 T03220177  RH  042%=      5-min Rain = 0
KNH1 201711Z 17010KT 32/18 A2998 RMK A01 T03230175  RH  041%=      5-min Rain = 0
KNH1 201712Z 18009KT 32/18 A2998 RMK A01 T03220175  RH  041%=      5-min Rain = 0
KNH1 201713Z 18011KT 32/18 A2998 RMK A01 T03220176  RH  042%=      5-min Rain = 0
KNH1 201714Z 16010KT 32/17 A2998 RMK A01 T03220174  RH  041%=      5-min Rain = 0
KNH1 201715Z 17010KT 32/17 A2998 RMK A01 T03230174  RH  041%=      5-min Rain = 0
KNH1 201716Z 16008KT 32/18 A2998 RMK A01 T03220175  RH  041%=      5-min Rain = 0
KNH1 201717Z 17009KT 32/17 A2998 RMK A01 T03230174  RH  041%=      5-min Rain = 0
KNH1 201718Z 19011KT 32/18 A2998 RMK A01 T03230178  RH  042%=      5-min Rain = 0
KNH1 201719Z 19012KT 33/18 A2998 RMK A01 T03280180  RH  042%=      5-min Rain = 0
KNH1 201720Z 18014KT 33/18 A2998 RMK A01 T03280179  RH  041%=      5-min Rain = 0
KNH1 201721Z 18012KT 33/18 A2998 RMK A01 T03260177  RH  041%=      5-min Rain = 0
KNH1 201722Z 19011KT 33/18 A2998 RMK A01 T03260177  RH  041%=      5-min Rain = 0
KNH1 201723Z 18013KT 33/18 A2998 RMK A01 T03250177  RH  041%=      5-min Rain = 0
KNH1 201724Z 17010KT 32/17 A2998 RMK A01 T03240174  RH  041%=      5-min Rain = 0
KNH1 201725Z 18013KT 32/18 A2998 RMK A01 T03240177  RH  041%=      5-min Rain = 0
KNH1 201726Z 19013KT 33/18 A2998 RMK A01 T03280176  RH  041%=      5-min Rain = 0
KNH1 201727Z 19013KT 33/18 A2998 RMK A01 T03280176  RH  040%=      5-min Rain = 0
KNH1 201728Z 20014KT 33/18 A2998 RMK A01 T03270175  RH  040%=      5-min Rain = 0
KNH1 201729Z 21010KT 33/18 A2998 RMK A01 T03250176  RH  041%=      5-min Rain = 0
KNH1 201730Z 19010KT 33/18 A2998 RMK A01 T03260179  RH  042%=      5-min Rain = 0
KNH1 201731Z 19008KT 33/18 A2998 RMK A01 T03280180  RH  041%=      5-min Rain = 0
KNH1 201732Z 20013KT 33/18 A2998 RMK A01 T03320180  RH  041%=      5-min Rain = 0
KNH1 201733Z 20012KT 33/18 A2998 RMK A01 T03330177  RH  040%=      5-min Rain = 0
KNH1 201734Z 21011KT 33/18 A2998 RMK A01 T03310176  RH  040%=      5-min Rain = 0
KNH1 201735Z 21010KT 33/18 A2998 RMK A01 T03290177  RH  040%=      5-min Rain = 0
KNH1 201736Z 18011G16KT 33/18 A2998 RMK A01 T03290177  RH  040%=      5-min Rain = 0
KNH1 201737Z 16009G15KT 33/17 A2998 RMK A01 T03280174  RH  040%=      5-min Rain = 0
KNH1 201738Z 17010G17KT 33/18 A2997 RMK A01 T03280175  RH  040%=      5-min Rain = 0
KNH1 201739Z 19012KT 33/18 A2998 RMK A01 T03300178  RH  040%=      5-min Rain = 0
KNH1 201740Z 19014KT 33/18 A2998 RMK A01 T03330178  RH  040%=      5-min Rain = 0
KNH1 201741Z 21009KT 33/18 A2998 RMK A01 T03320175  RH  039%=      5-min Rain = 0
KNH1 201742Z 18012KT 33/18 A2998 RMK A01 T03310178  RH  040%=      5-min Rain = 0
KNH1 201743Z 18011KT 33/18 A2998 RMK A01 T03340175  RH  039%=      5-min Rain = 0
KNH1 201744Z 19012KT 34/17 A2998 RMK A01 T03350174  RH  039%=      5-min Rain = 0
KNH1 201745Z 19008KT 33/18 A2997 RMK A01 T03340177  RH  039%=      5-min Rain = 0
KNH1 201746Z 18009G15KT 33/18 A2997 RMK A01 T03330176  RH  039%=      5-min Rain = 0
KNH1 201747Z 18012KT 34/18 A2997 RMK A01 T03350176  RH  039%=      5-min Rain = 0
KNH1 201748Z 18008KT 33/18 A2997 RMK A01 T03340176  RH  039%=      5-min Rain = 0
KNH1 201749Z 19009G14KT 34/18 A2997 RMK A01 T03350176  RH  039%=      5-min Rain = 0
KNH1 201750Z 19010KT 34/18 A2997 RMK A01 T03350177  RH  039%=      5-min Rain = 0
KNH1 201751Z 18010KT 34/18 A2997 RMK A01 T03350177  RH  039%=      5-min Rain = 0
KNH1 201752Z 18012KT 34/18 A2997 RMK A01 T03350177  RH  039%=      5-min Rain = 0
KNH1 201753Z 18013KT 34/18 A2997 RMK A01 T03350176  RH  039%=      5-min Rain = 0
KNH1 201754Z 17012KT 33/17 A2997 RMK A01 T03340174  RH  039%=      5-min Rain = 0
KNH1 201755Z 17009KT 33/18 A2997 RMK A01 T03330175  RH  039%=      5-min Rain = 0
KNH1 201756Z 17008KT 34/18 A2997 RMK A01 T03360177  RH  039%=      5-min Rain = 0
KNH1 201757Z 19011G16KT 34/18 A2997 RMK A01 T03370179  RH  039%=      5-min Rain = 0
KNH1 201758Z 17010KT 34/18 A2997 RMK A01 T03400180  RH  039%=      5-min Rain = 0
KNH1 201759Z 17010KT 34/18 A2997 RMK A01 T03410176  RH  038%=      5-min Rain = 0
KNH1 201800Z 20011KT 34/18 A2997 RMK A01 T03410178  RH  038%=      5-min Rain = 0
KNH1 201801Z 18008KT 34/18 A2997 RMK A01 T03420179  RH  038%=      5-min Rain = 0
KNH1 201802Z 18010KT 34/18 A2997 RMK A01 T03440177  RH  037%=      5-min Rain = 0
KNH1 201803Z 19012KT 34/18 A2997 RMK A01 T03430177  RH  038%=      5-min Rain = 0
KNH1 201804Z 18011KT 34/18 A2997 RMK A01 T03440178  RH  037%=      5-min Rain = 0
KNH1 201805Z 18009G14KT 34/18 A2997 RMK A01 T03440176  RH  037%=      5-min Rain = 0
KNH1 201806Z 17012KT 34/17 A2997 RMK A01 T03430174  RH  037%=      5-min Rain = 0
KNH1 201807Z 19010KT 34/18 A2997 RMK A01 T03400175  RH  038%=      5-min Rain = 0
KNH1 201808Z 19013KT 34/18 A2997 RMK A01 T03400178  RH  038%=      5-min Rain = 0
KNH1 201809Z 19014KT 34/18 A2997 RMK A01 T03420178  RH  038%=      5-min Rain = 0
KNH1 201810Z 19013KT 34/18 A2997 RMK A01 T03420177  RH  038%=      5-min Rain = 0
KNH1 201811Z 21010KT 34/18 A2997 RMK A01 T03410177  RH  038%=      5-min Rain = 0
KNH1 201812Z 19009G15KT 34/18 A2997 RMK A01 T03410178  RH  038%=      5-min Rain = 0
KNH1 201813Z 17012KT 34/18 A2997 RMK A01 T03420176  RH  037%=      5-min Rain = 0
KNH1 201814Z 17010G20KT 34/18 A2997 RMK A01 T03410176  RH  037%=      5-min Rain = 0
KNH1 201815Z 18015KT 34/18 A2997 RMK A01 T03430177  RH  037%=      5-min Rain = 0
KNH1 201816Z 19012KT 34/18 A2997 RMK A01 T03430177  RH  037%=      5-min Rain = 0
KNH1 201817Z 19012KT 34/18 A2996 RMK A01 T03430177  RH  038%=      5-min Rain = 0
KNH1 201818Z 19011KT 34/18 A2996 RMK A01 T03430177  RH  037%=      5-min Rain = 0
KNH1 201819Z 17011KT 34/18 A2996 RMK A01 T03420176  RH  037%=      5-min Rain = 0
KNH1 201820Z 16011KT 34/18 A2996 RMK A01 T03430175  RH  037%=      5-min Rain = 0
KNH1 201821Z 17008KT 35/18 A2996 RMK A01 T03460176  RH  037%=      5-min Rain = 0
KNH1 201822Z 18010G15KT 35/18 A2996 RMK A01 T03490182  RH  037%=      5-min Rain = 0
KNH1 201823Z 18011KT 35/18 A2996 RMK A01 T03520177  RH  036%=      5-min Rain = 0
KNH1 201824Z 19015KT 35/18 A2996 RMK A01 T03500176  RH  036%=      5-min Rain = 0
KNH1 201825Z 19008KT 35/17 A2996 RMK A01 T03450173  RH  036%=      5-min Rain = 0
KNH1 201826Z 19010KT 34/18 A2996 RMK A01 T03430178  RH  037%=      5-min Rain = 0
KNH1 201827Z 18009KT 35/18 A2996 RMK A01 T03460175  RH  036%=      5-min Rain = 0
KNH1 201828Z 17010KT 35/18 A2996 RMK A01 T03460175  RH  036%=      5-min Rain = 0
KNH1 201829Z 16009KT 35/17 A2996 RMK A01 T03470174  RH  036%=      5-min Rain = 0
KNH1 201830Z 16011G17KT 35/18 A2996 RMK A01 T03470175  RH  036%=      5-min Rain = 0
KNH1 201831Z 18013KT 35/17 A2996 RMK A01 T03500172  RH  035%=      5-min Rain = 0
KNH1 201832Z 18011KT 35/17 A2996 RMK A01 T03490171  RH  035%=      5-min Rain = 0
KNH1 201833Z 20012KT 35/17 A2996 RMK A01 T03470174  RH  036%=      5-min Rain = 0
KNH1 201834Z 17013KT 35/18 A2996 RMK A01 T03470175  RH  036%=      5-min Rain = 0
KNH1 201835Z 18014KT 35/17 A2996 RMK A01 T03470173  RH  036%=      5-min Rain = 0
KNH1 201836Z 17010KT 35/17 A2996 RMK A01 T03470173  RH  036%=      5-min Rain = 0
KNH1 201837Z 15009KT 35/17 A2996 RMK A01 T03460172  RH  036%=      5-min Rain = 0
KNH1 201838Z 17009KT 35/17 A2996 RMK A01 T03460172  RH  036%=      5-min Rain = 0
KNH1 201839Z 16008KT 35/17 A2996 RMK A01 T03480174  RH  036%=      5-min Rain = 0
KNH1 201840Z 18010G15KT 35/18 A2996 RMK A01 T03510175  RH  035%=      5-min Rain = 0
KNH1 201841Z 18013KT 35/17 A2996 RMK A01 T03510174  RH  035%=      5-min Rain = 0
KNH1 201842Z 17012KT 35/17 A2996 RMK A01 T03500173  RH  035%=      5-min Rain = 0
KNH1 201843Z 16012KT 35/17 A2996 RMK A01 T03480172  RH  035%=      5-min Rain = 0
KNH1 201844Z 16010KT 35/17 A2996 RMK A01 T03470172  RH  035%=      5-min Rain = 0
KNH1 201845Z 18008KT 35/17 A2996 RMK A01 T03480173  RH  036%=      5-min Rain = 0
KNH1 201846Z 18009KT 35/17 A2996 RMK A01 T03500172  RH  035%=      5-min Rain = 0
KNH1 201847Z 18013G18KT 35/17 A2996 RMK A01 T03500172  RH  035%=      5-min Rain = 0
KNH1 201848Z 17011KT 35/17 A2996 RMK A01 T03510173  RH  035%=      5-min Rain = 0
KNH1 201849Z 15010KT 35/17 A2995 RMK A01 T03520173  RH  035%=      5-min Rain = 0
KNH1 201850Z 17009KT 35/17 A2995 RMK A01 T03540172  RH  034%=      5-min Rain = 0
KNH1 201851Z 16007KT 35/17 A2995 RMK A01 T03540172  RH  034%=      5-min Rain = 0
KNH1 201852Z 17011G16KT 36/17 A2995 RMK A01 T03560173  RH  034%=      5-min Rain = 0
KNH1 201853Z 17010KT 36/17 A2996 RMK A01 T03570172  RH  033%=      5-min Rain = 0
KNH1 201854Z 19008KT 36/18 A2996 RMK A01 T03580176  RH  034%=      5-min Rain = 0
KNH1 201855Z 18009KT 36/17 A2996 RMK A01 T03600173  RH  033%=      5-min Rain = 0
KNH1 201856Z 18012G18KT 36/17 A2995 RMK A01 T03580173  RH  033%=      5-min Rain = 0
KNH1 201857Z 19015KT 36/17 A2995 RMK A01 T03570171  RH  033%=      5-min Rain = 0
KNH1 201858Z 19011KT 36/17 A2995 RMK A01 T03570171  RH  033%=      5-min Rain = 0
KNH1 201859Z 19010KT 36/17 A2995 RMK A01 T03560171  RH  034%=      5-min Rain = 0
KNH1 201900Z 18011KT 36/18 A2995 RMK A01 T03550175  RH  035%=      5-min Rain = 0
KNH1 201901Z 18014KT 36/17 A2995 RMK A01 T03580174  RH  034%=      5-min Rain = 0
KNH1 201902Z 18011KT 36/17 A2995 RMK A01 T03580174  RH  034%=      5-min Rain = 0
KNH1 201903Z 18009KT 36/17 A2995 RMK A01 T03570174  RH  034%=      5-min Rain = 0
KNH1 201904Z 17011KT 36/17 A2995 RMK A01 T03570172  RH  033%=      5-min Rain = 0
KNH1 201905Z 18008KT 36/17 A2995 RMK A01 T03560171  RH  034%=      5-min Rain = 0
KNH1 201906Z 17008KT 36/17 A2995 RMK A01 T03560173  RH  034%=      5-min Rain = 0
KNH1 201907Z 17008KT 36/17 A2995 RMK A01 T03570171  RH  033%=      5-min Rain = 0
KNH1 201908Z 18013KT 36/17 A2995 RMK A01 T03580174  RH  034%=      5-min Rain = 0
KNH1 201909Z 18014G19KT 36/17 A2995 RMK A01 T03590173  RH  033%=      5-min Rain = 0
KNH1 201910Z 19014KT 36/17 A2995 RMK A01 T03590174  RH  034%=      5-min Rain = 0
KNH1 201911Z 19012KT 36/17 A2995 RMK A01 T03590172  RH  033%=      5-min Rain = 0
KNH1 201912Z 19011KT 36/17 A2995 RMK A01 T03570173  RH  034%=      5-min Rain = 0
KNH1 201913Z 18010KT 36/17 A2995 RMK A01 T03580172  RH  033%=      5-min Rain = 0
KNH1 201914Z 18009KT 36/17 A2995 RMK A01 T03570173  RH  034%=      5-min Rain = 0
KNH1 201915Z 16012KT 36/17 A2995 RMK A01 T03610172  RH  033%=      5-min Rain = 0
KNH1 201916Z 16010G15KT 36/17 A2995 RMK A01 T03600169  RH  032%=      5-min Rain = 0
KNH1 201917Z 16011KT 36/17 A2995 RMK A01 T03570169  RH  033%=      5-min Rain = 0
KNH1 201918Z 17011KT 36/17 A2995 RMK A01 T03550168  RH  033%=      5-min Rain = 0
KNH1 201919Z 16007KT 35/17 A2995 RMK A01 T03540169  RH  033%=      5-min Rain = 0
KNH1 201920Z 16009G14KT 36/17 A2995 RMK A01 T03560170  RH  033%=      5-min Rain = 0
KNH1 201921Z 16010KT 36/17 A2995 RMK A01 T03600173  RH  033%=      5-min Rain = 0
KNH1 201922Z 17009KT 36/17 A2995 RMK A01 T03620173  RH  033%=      5-min Rain = 0
KNH1 201923Z 18010KT 37/17 A2995 RMK A01 T03650172  RH  032%=      5-min Rain = 0
KNH1 201924Z 18008KT 37/17 A2994 RMK A01 T03650173  RH  032%=      5-min Rain = 0
KNH1 201925Z 17011KT 37/17 A2994 RMK A01 T03650172  RH  032%=      5-min Rain = 0
KNH1 201926Z 18010G16KT 36/17 A2994 RMK A01 T03620171  RH  033%=      5-min Rain = 0
KNH1 201927Z 18014KT 36/17 A2994 RMK A01 T03610173  RH  033%=      5-min Rain = 0
KNH1 201928Z 18013KT 36/17 A2994 RMK A01 T03640172  RH  032%=      5-min Rain = 0
KNH1 201929Z 18013KT 37/17 A2994 RMK A01 T03660174  RH  032%=      5-min Rain = 0
KNH1 201930Z 18013KT 37/17 A2994 RMK A01 T03670172  RH  032%=      5-min Rain = 0
KNH1 201931Z 18012KT 36/17 A2994 RMK A01 T03640170  RH  032%=      5-min Rain = 0
KNH1 201932Z 18011KT 36/17 A2994 RMK A01 T03610169  RH  032%=      5-min Rain = 0
KNH1 201933Z 18008KT 36/17 A2994 RMK A01 T03610170  RH  032%=      5-min Rain = 0
KNH1 201934Z 18008KT 36/17 A2994 RMK A01 T03640170  RH  032%=      5-min Rain = 0
KNH1 201935Z 18008KT 37/17 A2994 RMK A01 T03670174  RH  032%=      5-min Rain = 0
KNH1 201936Z 16009KT 37/17 A2994 RMK A01 T03700170  RH  031%=      5-min Rain = 0
KNH1 201937Z 18011KT 37/17 A2994 RMK A01 T03690169  RH  031%=      5-min Rain = 0
KNH1 201938Z 18010KT 37/17 A2994 RMK A01 T03680168  RH  031%=      5-min Rain = 0
KNH1 201939Z 17013KT 37/17 A2994 RMK A01 T03650168  RH  031%=      5-min Rain = 0
KNH1 201940Z 16010KT 37/17 A2994 RMK A01 T03650165  RH  031%=      5-min Rain = 0
KNH1 201941Z 16011G17KT 37/17 A2994 RMK A01 T03650166  RH  031%=      5-min Rain = 0
KNH1 201942Z 17013KT 37/16 A2994 RMK A01 T03650164  RH  031%=      5-min Rain = 0
KNH1 201943Z 16010KT 36/17 A2994 RMK A01 T03630166  RH  031%=      5-min Rain = 0
KNH1 201944Z 17009KT 36/17 A2994 RMK A01 T03620166  RH  031%=      5-min Rain = 0
KNH1 201945Z 19008KT 36/17 A2994 RMK A01 T03620169  RH  032%=      5-min Rain = 0
KNH1 201946Z 18010KT 37/17 A2994 RMK A01 T03660173  RH  032%=      5-min Rain = 0
KNH1 201947Z 18012KT 37/17 A2994 RMK A01 T03690169  RH  031%=      5-min Rain = 0
KNH1 201948Z 18009KT 37/17 A2994 RMK A01 T03680168  RH  031%=      5-min Rain = 0
KNH1 201949Z 18008G13KT 37/17 A2994 RMK A01 T03680169  RH  031%=      5-min Rain = 0
KNH1 201950Z 19009KT 37/17 A2993 RMK A01 T03670168  RH  031%=      5-min Rain = 0
KNH1 201951Z 18007G14KT 37/17 A2993 RMK A01 T03680170  RH  031%=      5-min Rain = 0
KNH1 201952Z 17012KT 37/17 A2994 RMK A01 T03720171  RH  031%=      5-min Rain = 0
KNH1 201953Z 19012KT 37/17 A2994 RMK A01 T03720169  RH  030%=      5-min Rain = 0
KNH1 201954Z 18013KT 37/17 A2994 RMK A01 T03700167  RH  030%=      5-min Rain = 0
KNH1 201955Z 18013KT 37/17 A2994 RMK A01 T03690166  RH  030%=      5-min Rain = 0
KNH1 201956Z 19009KT 37/17 A2994 RMK A01 T03680169  RH  031%=      5-min Rain = 0
KNH1 201957Z 20010KT 37/17 A2994 RMK A01 T03700170  RH  031%=      5-min Rain = 0
KNH1 201958Z 18011KT 37/17 A2994 RMK A01 T03700168  RH  030%=      5-min Rain = 0
KNH1 201959Z 18009KT 37/17 A2994 RMK A01 T03700165  RH  030%=      5-min Rain = 0
KNH1 202000Z 19009KT 37/16 A2993 RMK A01 T03700164  RH  030%=      5-min Rain = 0
KNH1 202001Z 18006KT 37/16 A2993 RMK A01 T03690163  RH  029%=      5-min Rain = 0
KNH1 202002Z 18006KT 37/17 A2993 RMK A01 T03690165  RH  030%=      5-min Rain = 0
KNH1 202003Z 18012KT 37/17 A2993 RMK A01 T03720168  RH  030%=      5-min Rain = 0
KNH1 202004Z 16010KT 37/17 A2993 RMK A01 T03730165  RH  029%=      5-min Rain = 0
KNH1 202005Z 16007G13KT 37/16 A2993 RMK A01 T03710163  RH  029%=      5-min Rain = 0
KNH1 202006Z 16011KT 37/16 A2993 RMK A01 T03720164  RH  029%=      5-min Rain = 0
KNH1 202007Z 15008KT 37/16 A2993 RMK A01 T03710163  RH  029%=      5-min Rain = 0
KNH1 202008Z 18011KT 37/17 A2993 RMK A01 T03720165  RH  030%=      5-min Rain = 0
KNH1 202009Z 19012G17KT 37/17 A2993 RMK A01 T03720169  RH  030%=      5-min Rain = 0
KNH1 202010Z 18011KT 37/17 A2993 RMK A01 T03730170  RH  030%=      5-min Rain = 0
KNH1 202011Z 19011KT 38/17 A2993 RMK A01 T03750171  RH  030%=      5-min Rain = 0
KNH1 202012Z 17011G16KT 38/17 A2993 RMK A01 T03750168  RH  030%=      5-min Rain = 0
KNH1 202013Z 16008KT 38/16 A2993 RMK A01 T03750164  RH  029%=      5-min Rain = 0
KNH1 202014Z 15011KT 37/16 A2993 RMK A01 T03730164  RH  029%=      5-min Rain = 0
KNH1 202015Z 15008G14KT 37/17 A2993 RMK A01 T03720165  RH  029%=      5-min Rain = 0
KNH1 202016Z 16009KT 37/17 A2993 RMK A01 T03730165  RH  029%=      5-min Rain = 0
KNH1 202017Z 16011KT 38/17 A2993 RMK A01 T03750167  RH  029%=      5-min Rain = 0
KNH1 202018Z 17012KT 38/17 A2993 RMK A01 T03750167  RH  029%=      5-min Rain = 0
KNH1 202019Z 18011KT 38/17 A2993 RMK A01 T03750167  RH  029%=      5-min Rain = 0
KNH1 202020Z 16009KT 37/17 A2993 RMK A01 T03740167  RH  030%=      5-min Rain = 0
KNH1 202021Z 18010KT 38/17 A2993 RMK A01 T03750166  RH  029%=      5-min Rain = 0
KNH1 202022Z 19009KT 38/17 A2993 RMK A01 T03750167  RH  029%=      5-min Rain = 0
KNH1 202023Z 18012KT 38/17 A2993 RMK A01 T03780167  RH  029%=      5-min Rain = 0
KNH1 202024Z 19012KT 38/17 A2993 RMK A01 T03790166  RH  029%=      5-min Rain = 0
KNH1 202025Z 20008KT 38/17 A2993 RMK A01 T03800168  RH  029%=      5-min Rain = 0
KNH1 202026Z 19012KT 38/17 A2992 RMK A01 T03810169  RH  029%=      5-min Rain = 0
KNH1 202027Z 19011G16KT 38/17 A2992 RMK A01 T03800167  RH  029%=      5-min Rain = 0
KNH1 202028Z 21010G15KT 38/16 A2992 RMK A01 T03770164  RH  029%=      5-min Rain = 0
KNH1 202029Z 21011KT 37/16 A2992 RMK A01 T03740163  RH  029%=      5-min Rain = 0
KNH1 202030Z 22010KT 37/16 A2992 RMK A01 T03720164  RH  029%=      5-min Rain = 0
KNH1 202031Z 18011KT 37/17 A2992 RMK A01 T03720166  RH  030%=      5-min Rain = 0
KNH1 202032Z 17010KT 38/16 A2992 RMK A01 T03750163  RH  029%=      5-min Rain = 0
KNH1 202033Z 16010KT 38/16 A2992 RMK A01 T03770162  RH  028%=      5-min Rain = 0
KNH1 202034Z 15009KT 38/16 A2992 RMK A01 T03780159  RH  028%=      5-min Rain = 0
KNH1 202035Z 15010KT 38/16 A2992 RMK A01 T03790158  RH  027%=      5-min Rain = 0
KNH1 202036Z 16010KT 38/16 A2992 RMK A01 T03800157  RH  027%=      5-min Rain = 0
KNH1 202037Z 16009KT 38/16 A2992 RMK A01 T03780155  RH  027%=      5-min Rain = 0
KNH1 202038Z 16007KT 38/16 A2992 RMK A01 T03770157  RH  027%=      5-min Rain = 0
KNH1 202039Z 15004KT 38/16 A2992 RMK A01 T03770156  RH  027%=      5-min Rain = 0
KNH1 202040Z 16007KT 38/16 A2992 RMK A01 T03780161  RH  028%=      5-min Rain = 0
KNH1 202041Z 19013KT 38/17 A2992 RMK A01 T03810166  RH  028%=      5-min Rain = 0
KNH1 202042Z 19009KT 38/16 A2992 RMK A01 T03800161  RH  028%=      5-min Rain = 0
KNH1 202043Z 18009KT 38/17 A2992 RMK A01 T03780165  RH  029%=      5-min Rain = 0
KNH1 202044Z 18012KT 38/17 A2992 RMK A01 T03820166  RH  028%=      5-min Rain = 0
KNH1 202045Z 18011KT 38/16 A2992 RMK A01 T03830160  RH  027%=      5-min Rain = 0
KNH1 202046Z 18009KT 38/16 A2992 RMK A01 T03770160  RH  028%=      5-min Rain = 0
KNH1 202047Z 18009KT 38/16 A2992 RMK A01 T03760161  RH  028%=      5-min Rain = 0
KNH1 202048Z 18012KT 38/16 A2992 RMK A01 T03760161  RH  028%=      5-min Rain = 0
KNH1 202049Z 19012KT 38/16 A2992 RMK A01 T03790163  RH  028%=      5-min Rain = 0
KNH1 202050Z 18009KT 38/16 A2992 RMK A01 T03790159  RH  027%=      5-min Rain = 0
KNH1 202051Z 20010KT 38/16 A2992 RMK A01 T03780160  RH  028%=      5-min Rain = 0
KNH1 202052Z 21008KT 38/16 A2992 RMK A01 T03760158  RH  028%=      5-min Rain = 0
KNH1 202053Z 19010KT 38/16 A2992 RMK A01 T03750160  RH  028%=      5-min Rain = 0
KNH1 202054Z 19008KT 38/16 A2992 RMK A01 T03770159  RH  028%=      5-min Rain = 0
KNH1 202055Z 17010G15KT 38/16 A2992 RMK A01 T03800160  RH  027%=      5-min Rain = 0
KNH1 202056Z 18011KT 38/16 A2992 RMK A01 T03810161  RH  027%=      5-min Rain = 0
KNH1 202057Z 18012G17KT 38/16 A2992 RMK A01 T03800164  RH  028%=      5-min Rain = 0
KNH1 202058Z 18010KT 38/16 A2992 RMK A01 T03790160  RH  028%=      5-min Rain = 0
KNH1 202059Z 18011KT 38/16 A2992 RMK A01 T03760160  RH  028%=      5-min Rain = 0
KNH1 202100Z 19012KT 38/16 A2992 RMK A01 T03750162  RH  028%=      5-min Rain = 0
KNH1 202101Z 18013KT 38/16 A2992 RMK A01 T03770163  RH  028%=      5-min Rain = 0
KNH1 202102Z 19015KT 38/16 A2992 RMK A01 T03780160  RH  028%=      5-min Rain = 0
KNH1 202103Z 19012KT 38/16 A2992 RMK A01 T03760159  RH  028%=      5-min Rain = 0
KNH1 202104Z 19008KT 38/16 A2992 RMK A01 T03750161  RH  028%=      5-min Rain = 0
KNH1 202105Z 18008KT 38/16 A2992 RMK A01 T03780163  RH  028%=      5-min Rain = 0
KNH1 202106Z 16009KT 38/16 A2992 RMK A01 T03800161  RH  027%=      5-min Rain = 0
KNH1 202107Z 17011KT 38/16 A2992 RMK A01 T03810162  RH  028%=      5-min Rain = 0
KNH1 202108Z 17011KT 38/16 A2992 RMK A01 T03820159  RH  027%=      5-min Rain = 0
KNH1 202109Z 16011KT 38/16 A2992 RMK A01 T03790159  RH  027%=      5-min Rain = 0
KNH1 202110Z 16008KT 38/16 A2992 RMK A01 T03790159  RH  027%=      5-min Rain = 0
KNH1 202111Z 16010KT 38/16 A2992 RMK A01 T03810158  RH  027%=      5-min Rain = 0
KNH1 202112Z 16008KT 38/16 A2992 RMK A01 T03820160  RH  027%=      5-min Rain = 0
KNH1 202113Z 17008KT 38/16 A2992 RMK A01 T03840159  RH  027%=      5-min Rain = 0
KNH1 202114Z 17007KT 38/16 A2992 RMK A01 T03830157  RH  026%=      5-min Rain = 0
KNH1 202115Z 15007KT 38/16 A2992 RMK A01 T03800159  RH  027%=      5-min Rain = 0
KNH1 202116Z 14005G10KT 38/16 A2991 RMK A01 T03810155  RH  026%=      5-min Rain = 0
KNH1 202117Z 15005KT 38/16 A2991 RMK A01 T03820156  RH  026%=      5-min Rain = 0
KNH1 202118Z 18010G15KT 38/16 A2991 RMK A01 T03830157  RH  026%=      5-min Rain = 0
KNH1 202119Z 18016KT 38/16 A2991 RMK A01 T03820158  RH  027%=      5-min Rain = 0
KNH1 202120Z 18012KT 38/16 A2991 RMK A01 T03820158  RH  027%=      5-min Rain = 0
KNH1 202121Z 18011KT 38/16 A2991 RMK A01 T03840156  RH  026%=      5-min Rain = 0
KNH1 202122Z 19010KT 38/16 A2991 RMK A01 T03830155  RH  026%=      5-min Rain = 0
KNH1 202123Z 19011KT 38/16 A2991 RMK A01 T03820157  RH  026%=      5-min Rain = 0
KNH1 202124Z 20010KT 38/16 A2991 RMK A01 T03840160  RH  027%=      5-min Rain = 0
KNH1 202125Z 19011KT 39/15 A2991 RMK A01 T03860154  RH  026%=      5-min Rain = 0
KNH1 202126Z 19011KT 38/15 A2991 RMK A01 T03830152  RH  026%=      5-min Rain = 0
KNH1 202127Z 19013KT 38/15 A2991 RMK A01 T03810152  RH  026%=      5-min Rain = 0
KNH1 202128Z 20012KT 38/15 A2991 RMK A01 T03800151  RH  026%=      5-min Rain = 0
KNH1 202129Z 20009KT 38/15 A2991 RMK A01 T03790153  RH  026%=      5-min Rain = 0
KNH1 202130Z 19012KT 38/16 A2991 RMK A01 T03790156  RH  027%=      5-min Rain = 0
KNH1 202131Z 18012KT 38/16 A2991 RMK A01 T03810156  RH  027%=      5-min Rain = 0
KNH1 202132Z 19013KT 38/15 A2991 RMK A01 T03820150  RH  025%=      5-min Rain = 0
KNH1 202133Z 19013KT 38/15 A2991 RMK A01 T03810148  RH  025%=      5-min Rain = 0
KNH1 202134Z 19011KT 38/15 A2991 RMK A01 T03810148  RH  025%=      5-min Rain = 0
KNH1 202135Z 20006KT 38/14 A2991 RMK A01 T03790143  RH  025%=      5-min Rain = 0
KNH1 202136Z 19007KT 38/14 A2991 RMK A01 T03780144  RH  025%=      5-min Rain = 0
KNH1 202137Z 20006KT 38/14 A2991 RMK A01 T03780144  RH  025%=      5-min Rain = 0
KNH1 202138Z 18006KT 38/15 A2991 RMK A01 T03780149  RH  026%=      5-min Rain = 0
KNH1 202139Z 19006KT 38/15 A2991 RMK A01 T03800153  RH  026%=      5-min Rain = 0
KNH1 202140Z 18010KT 38/15 A299 RMK A01 T03810154  RH  026%=      5-min Rain = 0
KNH1 202141Z 19010KT 38/15 A299 RMK A01 T03810153  RH  026%=      5-min Rain = 0
KNH1 202142Z 18013KT 38/15 A299 RMK A01 T03810154  RH  026%=      5-min Rain = 0
KNH1 202143Z 17009KT 38/15 A299 RMK A01 T03790151  RH  026%=      5-min Rain = 0
KNH1 202144Z 18012KT 38/15 A299 RMK A01 T03780152  RH  026%=      5-min Rain = 0
KNH1 202145Z 16007KT 38/15 A299 RMK A01 T03790152  RH  026%=      5-min Rain = 0
KNH1 202146Z 15006KT 38/15 A299 RMK A01 T03810150  RH  025%=      5-min Rain = 0
KNH1 202147Z 13003KT 38/15 A299 RMK A01 T03810151  RH  026%=      5-min Rain = 0
KNH1 202148Z 14003KT 38/15 A299 RMK A01 T03820152  RH  026%=      5-min Rain = 0
KNH1 202149Z 16004KT 39/15 A299 RMK A01 T03850151  RH  025%=      5-min Rain = 0
KNH1 202150Z 16006KT 39/15 A299 RMK A01 T03850151  RH  025%=      5-min Rain = 0
KNH1 202151Z 16006KT 39/15 A299 RMK A01 T03850150  RH  025%=      5-min Rain = 0
KNH1 202152Z 17010KT 38/15 A299 RMK A01 T03840151  RH  025%=      5-min Rain = 0
KNH1 202153Z 16009KT 38/16 A299 RMK A01 T03840155  RH  026%=      5-min Rain = 0
KNH1 202154Z 19011KT 39/16 A299 RMK A01 T03880158  RH  026%=      5-min Rain = 0
KNH1 202155Z 18011KT 39/16 A299 RMK A01 T03870156  RH  026%=      5-min Rain = 0
KNH1 202156Z 17009KT 39/16 A299 RMK A01 T03850158  RH  026%=      5-min Rain = 0
KNH1 202157Z 16010KT 39/15 A299 RMK A01 T03870154  RH  025%=      5-min Rain = 0
KNH1 202158Z 18012G17KT 39/15 A299 RMK A01 T03880154  RH  025%=      5-min Rain = 0
KNH1 202159Z 18013G18KT 38/15 A299 RMK A01 T03840152  RH  025%=      5-min Rain = 0
KNH1 202200Z 18014KT 38/15 A299 RMK A01 T03800153  RH  026%=      5-min Rain = 0
KNH1 202201Z 17016KT 38/15 A299 RMK A01 T03800151  RH  026%=      5-min Rain = 0
KNH1 202202Z 19011KT 38/15 A299 RMK A01 T03790150  RH  026%=      5-min Rain = 0
KNH1 202203Z 17011KT 38/15 A299 RMK A01 T03780152  RH  026%=      5-min Rain = 0
KNH1 202204Z 16011KT 38/15 A299 RMK A01 T03800150  RH  026%=      5-min Rain = 0
KNH1 202205Z 17011KT 38/15 A299 RMK A01 T03800150  RH  026%=      5-min Rain = 0
KNH1 202206Z 17011KT 38/15 A299 RMK A01 T03800151  RH  026%=      5-min Rain = 0
KNH1 202207Z 20012KT 38/15 A299 RMK A01 T03810153  RH  026%=      5-min Rain = 0
KNH1 202208Z 19009KT 38/15 A299 RMK A01 T03810153  RH  026%=      5-min Rain = 0
KNH1 202209Z 20009KT 38/16 A299 RMK A01 T03830155  RH  026%=      5-min Rain = 0
KNH1 202210Z 19010KT 38/15 A299 RMK A01 T03830152  RH  026%=      5-min Rain = 0
KNH1 202211Z 20013KT 38/15 A299 RMK A01 T03820149  RH  025%=      5-min Rain = 0
KNH1 202212Z 19014KT 38/15 A299 RMK A01 T03820147  RH  025%=      5-min Rain = 0
KNH1 202213Z 19011KT 38/15 A299 RMK A01 T03810145  RH  025%=      5-min Rain = 0
KNH1 202214Z 20010KT 38/14 A299 RMK A01 T03800144  RH  025%=      5-min Rain = 0
KNH1 202215Z 18013G18KT 38/15 A299 RMK A01 T03790147  RH  025%=      5-min Rain = 0
KNH1 202216Z 17013G20KT 38/14 A299 RMK A01 T03810142  RH  024%=      5-min Rain = 0
KNH1 202217Z 18010KT 38/14 A299 RMK A01 T03820142  RH  024%=      5-min Rain = 0
KNH1 202218Z 17010KT 38/14 A299 RMK A01 T03820144  RH  024%=      5-min Rain = 0
KNH1 202219Z 17007KT 38/14 A299 RMK A01 T03820142  RH  024%=      5-min Rain = 0
KNH1 202220Z 18007KT 38/14 A299 RMK A01 T03810142  RH  024%=      5-min Rain = 0
KNH1 202221Z 18008KT 38/15 A299 RMK A01 T03810145  RH  025%=      5-min Rain = 0
KNH1 202222Z 16008G14KT 38/15 A299 RMK A01 T03830149  RH  025%=      5-min Rain = 0
KNH1 202223Z 15010G16KT 39/15 A299 RMK A01 T03860148  RH  025%=      5-min Rain = 0
KNH1 202224Z 15009KT 39/15 A299 RMK A01 T03860147  RH  024%=      5-min Rain = 0
KNH1 202225Z 16010KT 39/15 A2989 RMK A01 T03860148  RH  025%=      5-min Rain = 0
KNH1 202226Z 17009KT 39/15 A2989 RMK A01 T03860145  RH  024%=      5-min Rain = 0
KNH1 202227Z 15008G13KT 38/15 A2989 RMK A01 T03840145  RH  024%=      5-min Rain = 0
KNH1 202228Z 15010KT 39/14 A2989 RMK A01 T03850143  RH  024%=      5-min Rain = 0
KNH1 202229Z 15007KT 39/14 A2989 RMK A01 T03850144  RH  024%=      5-min Rain = 0
KNH1 202230Z 16007G12KT 39/14 A2989 RMK A01 T03870144  RH  024%=      5-min Rain = 0
KNH1 202231Z 16009KT 39/14 A2989 RMK A01 T03860142  RH  024%=      5-min Rain = 0
KNH1 202232Z 17008KT 38/14 A2989 RMK A01 T03820144  RH  024%=      5-min Rain = 0
KNH1 202233Z 16009G14KT 38/14 A2989 RMK A01 T03820142  RH  024%=      5-min Rain = 0
KNH1 202234Z 17011KT 38/15 A2989 RMK A01 T03810145  RH  025%=      5-min Rain = 0
KNH1 202235Z 17014KT 38/15 A2989 RMK A01 T03820146  RH  025%=      5-min Rain = 0
KNH1 202236Z 15005G11KT 38/15 A2989 RMK A01 T03800145  RH  025%=      5-min Rain = 0
KNH1 202237Z 14005KT 38/15 A2989 RMK A01 T03800145  RH  025%=      5-min Rain = 0
KNH1 202238Z 16008KT 38/15 A2989 RMK A01 T03810147  RH  025%=      5-min Rain = 0
KNH1 202239Z 16009KT 38/15 A2989 RMK A01 T03820146  RH  025%=      5-min Rain = 0
KNH1 202240Z 17010KT 38/15 A2989 RMK A01 T03820146  RH  025%=      5-min Rain = 0
KNH1 202241Z 17009KT 38/15 A2989 RMK A01 T03830147  RH  025%=      5-min Rain = 0
KNH1 202242Z 16009KT 39/15 A2989 RMK A01 T03850150  RH  025%=      5-min Rain = 0
KNH1 202243Z 17009KT 39/15 A2989 RMK A01 T03860146  RH  024%=      5-min Rain = 0
KNH1 202244Z 16012KT 38/15 A2989 RMK A01 T03840146  RH  024%=      5-min Rain = 0
KNH1 202245Z 15008G15KT 38/15 A2989 RMK A01 T03830145  RH  024%=      5-min Rain = 0
KNH1 202246Z 18007KT 38/14 A2989 RMK A01 T03830144  RH  024%=      5-min Rain = 0
KNH1 202247Z 17009KT 38/15 A2989 RMK A01 T03820145  RH  025%=      5-min Rain = 0
KNH1 202248Z 17010KT 38/15 A2989 RMK A01 T03810146  RH  025%=      5-min Rain = 0
KNH1 202249Z 17012KT 38/15 A2989 RMK A01 T03810145  RH  025%=      5-min Rain = 0
KNH1 202250Z 16009KT 38/14 A2989 RMK A01 T03810144  RH  025%=      5-min Rain = 0
KNH1 202251Z 15010KT 38/15 A2989 RMK A01 T03810145  RH  025%=      5-min Rain = 0
KNH1 202252Z 16010KT 38/14 A2989 RMK A01 T03820144  RH  024%=      5-min Rain = 0
KNH1 202253Z 17009KT 38/14 A2989 RMK A01 T03820144  RH  024%=      5-min Rain = 0
KNH1 202254Z 20008KT 38/15 A2988 RMK A01 T03810147  RH  025%=      5-min Rain = 0
KNH1 202255Z 19010KT 38/14 A2988 RMK A01 T03820143  RH  024%=      5-min Rain = 0
KNH1 202256Z 19009KT 38/14 A2988 RMK A01 T03810143  RH  024%=      5-min Rain = 0
KNH1 202257Z 19009KT 38/14 A2988 RMK A01 T03810143  RH  025%=      5-min Rain = 0
KNH1 202258Z 20009KT 38/15 A2988 RMK A01 T03800146  RH  025%=      5-min Rain = 0
KNH1 202259Z 19012KT 38/15 A2988 RMK A01 T03820149  RH  025%=      5-min Rain = 0
KNH1 202300Z 18009G14KT 38/15 A2988 RMK A01 T03830148  RH  025%=      5-min Rain = 0
KNH1 202301Z 16010G15KT 38/15 A2988 RMK A01 T03830146  RH  025%=      5-min Rain = 0
KNH1 202302Z 18007KT 38/14 A2988 RMK A01 T03820143  RH  024%=      5-min Rain = 0
KNH1 202303Z 16007G13KT 38/14 A2988 RMK A01 T03810144  RH  025%=      5-min Rain = 0
KNH1 202304Z 18011KT 38/14 A2988 RMK A01 T03820143  RH  024%=      5-min Rain = 0
KNH1 202305Z 17013KT 38/14 A2988 RMK A01 T03820141  RH  024%=      5-min Rain = 0
KNH1 202306Z 18009KT 38/14 A2988 RMK A01 T03800141  RH  024%=      5-min Rain = 0
KNH1 202307Z 18010G18KT 38/14 A2988 RMK A01 T03800141  RH  024%=      5-min Rain = 0
KNH1 202308Z 19015KT 38/14 A2988 RMK A01 T03800140  RH  024%=      5-min Rain = 0
KNH1 202309Z 19011KT 38/14 A2988 RMK A01 T03790143  RH  025%=      5-min Rain = 0
KNH1 202310Z 17010KT 38/14 A2988 RMK A01 T03800143  RH  025%=      5-min Rain = 0
KNH1 202311Z 18009KT 38/14 A2988 RMK A01 T03800141  RH  024%=      5-min Rain = 0
KNH1 202312Z 19010KT 38/14 A2988 RMK A01 T03800143  RH  025%=      5-min Rain = 0
KNH1 202313Z 20010KT 38/14 A2988 RMK A01 T03800143  RH  025%=      5-min Rain = 0
KNH1 202314Z 19007KT 38/14 A2988 RMK A01 T03780142  RH  025%=      5-min Rain = 0
KNH1 202315Z 18009KT 38/15 A2988 RMK A01 T03770145  RH  025%=      5-min Rain = 0
KNH1 202316Z 16011KT 38/15 A2988 RMK A01 T03780146  RH  025%=      5-min Rain = 0
KNH1 202317Z 17010KT 38/15 A2988 RMK A01 T03800145  RH  025%=      5-min Rain = 0
KNH1 202318Z 16008G13KT 38/14 A2988 RMK A01 T03800144  RH  025%=      5-min Rain = 0
KNH1 202319Z 17008KT 38/15 A2988 RMK A01 T03800145  RH  025%=      5-min Rain = 0
KNH1 202320Z 17009KT 38/15 A2988 RMK A01 T03820146  RH  025%=      5-min Rain = 0
KNH1 202321Z 18011KT 38/14 A2988 RMK A01 T03820144  RH  025%=      5-min Rain = 0
KNH1 202322Z 17014KT 38/15 A2988 RMK A01 T03820147  RH  025%=      5-min Rain = 0
KNH1 202323Z 17014KT 38/14 A2988 RMK A01 T03820144  RH  025%=      5-min Rain = 0
KNH1 202324Z 16010KT 38/14 A2988 RMK A01 T03790142  RH  025%=      5-min Rain = 0
KNH1 202325Z 17012KT 38/14 A2988 RMK A01 T03790144  RH  025%=      5-min Rain = 0
KNH1 202326Z 18012KT 38/14 A2988 RMK A01 T03800144  RH  025%=      5-min Rain = 0
KNH1 202327Z 18010KT 38/15 A2988 RMK A01 T03790145  RH  025%=      5-min Rain = 0
KNH1 202328Z 18012KT 38/15 A2988 RMK A01 T03780146  RH  025%=      5-min Rain = 0
KNH1 202329Z 18010KT 38/14 A2987 RMK A01 T03770144  RH  025%=      5-min Rain = 0
KNH1 202330Z 17008KT 38/14 A2987 RMK A01 T03760143  RH  025%=      5-min Rain = 0
KNH1 202331Z 18008KT 38/14 A2987 RMK A01 T03770144  RH  025%=      5-min Rain = 0
KNH1 202332Z 16007KT 38/15 A2987 RMK A01 T03790145  RH  025%=      5-min Rain = 0
KNH1 202333Z 17010KT 38/15 A2987 RMK A01 T03810145  RH  025%=      5-min Rain = 0
KNH1 202334Z 16011KT 38/14 A2987 RMK A01 T03820143  RH  024%=      5-min Rain = 0
KNH1 202335Z 16009G14KT 38/14 A2987 RMK A01 T03810140  RH  024%=      5-min Rain = 0
KNH1 202336Z 16010KT 38/14 A2987 RMK A01 T03800141  RH  024%=      5-min Rain = 0
KNH1 202337Z 15009KT 38/14 A2987 RMK A01 T03800141  RH  024%=      5-min Rain = 0
KNH1 202338Z 16008KT 38/14 A2987 RMK A01 T03800141  RH  024%=      5-min Rain = 0
KNH1 202339Z 18011KT 38/14 A2988 RMK A01 T03820141  RH  024%=      5-min Rain = 0
KNH1 202340Z 17009KT 38/14 A2987 RMK A01 T03810140  RH  024%=      5-min Rain = 0
KNH1 202341Z 18008KT 38/14 A2988 RMK A01 T03800140  RH  024%=      5-min Rain = 0
KNH1 202342Z 18011KT 38/14 A2987 RMK A01 T03800142  RH  024%=      5-min Rain = 0
KNH1 202343Z 17012KT 38/14 A2987 RMK A01 T03800141  RH  024%=      5-min Rain = 0
KNH1 202344Z 17009KT 38/14 A2988 RMK A01 T03790139  RH  024%=      5-min Rain = 0
KNH1 202345Z 18008KT 38/14 A2988 RMK A01 T03790141  RH  024%=      5-min Rain = 0
KNH1 202346Z 17011KT 38/14 A2988 RMK A01 T03800139  RH  024%=      5-min Rain = 0
KNH1 202347Z 17011KT 38/14 A2988 RMK A01 T03790137  RH  024%=      5-min Rain = 0
KNH1 202348Z 16009KT 38/14 A2987 RMK A01 T03780137  RH  024%=      5-min Rain = 0
KNH1 202349Z 16008G13KT 38/14 A2987 RMK A01 T03770139  RH  024%=      5-min Rain = 0
KNH1 202350Z 18010KT 38/14 A2987 RMK A01 T03780140  RH  024%=      5-min Rain = 0
KNH1 202351Z 18009KT 38/14 A2987 RMK A01 T03790143  RH  025%=      5-min Rain = 0
KNH1 202352Z 17010KT 38/14 A2987 RMK A01 T03790139  RH  024%=      5-min Rain = 0
KNH1 202353Z 17010KT 38/14 A2987 RMK A01 T03790138  RH  024%=      5-min Rain = 0
KNH1 202354Z 19014KT 38/14 A2987 RMK A01 T03780141  RH  025%=      5-min Rain = 0
KNH1 202355Z 18010KT 38/14 A2987 RMK A01 T03780142  RH  025%=      5-min Rain = 0
KNH1 202356Z 17009KT 38/14 A2987 RMK A01 T03760143  RH  025%=      5-min Rain = 0
KNH1 202357Z 17009KT 38/14 A2987 RMK A01 T03770144  RH  025%=      5-min Rain = 0
KNH1 202358Z 16008G13KT 38/14 A2987 RMK A01 T03770144  RH  025%=      5-min Rain = 0
KNH1 202359Z 17012KT 38/14 A2987 RMK A01 T03780143  RH  025%=      5-min Rain = 0
KNH1 210000Z 17009KT 38/14 A2987 RMK A01 T03780141  RH  024%=      5-min Rain = 0
KNH1 210001Z 17011KT 38/14 A2987 RMK A01 T03780140  RH  024%=      5-min Rain = 0
KNH1 210002Z 16010KT 38/14 A2987 RMK A01 T03770140  RH  025%=      5-min Rain = 0
KNH1 210003Z 16010G15KT 38/14 A2987 RMK A01 T03760139  RH  024%=      5-min Rain = 0
KNH1 210004Z 17007KT 38/14 A2987 RMK A01 T03760141  RH  025%=      5-min Rain = 0
KNH1 210005Z 18010KT 38/14 A2987 RMK A01 T03770143  RH  025%=      5-min Rain = 0
KNH1 210006Z 18011KT 38/14 A2987 RMK A01 T03780144  RH  025%=      5-min Rain = 0
KNH1 210007Z 18011KT 38/14 A2987 RMK A01 T03780143  RH  025%=      5-min Rain = 0
KNH1 210008Z 19013KT 38/15 A2987 RMK A01 T03770145  RH  025%=      5-min Rain = 0
KNH1 210009Z 19015KT 38/14 A2987 RMK A01 T03760144  RH  025%=      5-min Rain = 0
KNH1 210010Z 19013KT 38/14 A2987 RMK A01 T03750144  RH  025%=      5-min Rain = 0
KNH1 210011Z 18013G18KT 37/14 A2987 RMK A01 T03740143  RH  025%=      5-min Rain = 0
KNH1 210012Z 18015KT 37/14 A2987 RMK A01 T03740139  RH  025%=      5-min Rain = 0
KNH1 210013Z 19013KT 37/14 A2987 RMK A01 T03740141  RH  025%=      5-min Rain = 0
KNH1 210014Z 19011KT 37/14 A2987 RMK A01 T03730140  RH  025%=      5-min Rain = 0
KNH1 210015Z 18010KT 37/14 A2987 RMK A01 T03730143  RH  025%=      5-min Rain = 0
KNH1 210016Z 18011KT 37/14 A2987 RMK A01 T03740144  RH  026%=      5-min Rain = 0
KNH1 210017Z 17011KT 37/14 A2987 RMK A01 T03740139  RH  025%=      5-min Rain = 0
KNH1 210018Z 17009KT 38/14 A2987 RMK A01 T03750140  RH  025%=      5-min Rain = 0
KNH1 210019Z 17010KT 37/14 A2987 RMK A01 T03740139  RH  025%=      5-min Rain = 0
KNH1 210020Z 17010KT 37/14 A2987 RMK A01 T03730139  RH  025%=      5-min Rain = 0
KNH1 210021Z 17006KT 37/14 A2987 RMK A01 T03730140  RH  025%=      5-min Rain = 0
KNH1 210022Z 17007KT 37/14 A2987 RMK A01 T03730141  RH  025%=      5-min Rain = 0
KNH1 210023Z 17009KT 38/14 A2987 RMK A01 T03750141  RH  025%=      5-min Rain = 0
KNH1 210024Z 17009KT 37/14 A2987 RMK A01 T03740139  RH  025%=      5-min Rain = 0
KNH1 210025Z 17008KT 37/14 A2987 RMK A01 T03730139  RH  025%=      5-min Rain = 0
KNH1 210026Z 17008KT 37/14 A2987 RMK A01 T03730140  RH  025%=      5-min Rain = 0
KNH1 210027Z 17009G14KT 37/14 A2987 RMK A01 T03740141  RH  025%=      5-min Rain = 0
KNH1 210028Z 17012KT 37/14 A2987 RMK A01 T03740140  RH  025%=      5-min Rain = 0
KNH1 210029Z 16009KT 37/14 A2987 RMK A01 T03730140  RH  025%=      5-min Rain = 0
KNH1 210030Z 16010KT 37/14 A2987 RMK A01 T03730141  RH  025%=      5-min Rain = 0
KNH1 210031Z 18010KT 37/14 A2987 RMK A01 T03730140  RH  025%=      5-min Rain = 0
KNH1 210032Z 18008KT 37/14 A2987 RMK A01 T03730141  RH  025%=      5-min Rain = 0
KNH1 210033Z 18011KT 37/14 A2987 RMK A01 T03730140  RH  025%=      5-min Rain = 0
KNH1 210034Z 18010KT 37/14 A2987 RMK A01 T03720140  RH  025%=      5-min Rain = 0
KNH1 210035Z 18012KT 37/14 A2987 RMK A01 T03720141  RH  025%=      5-min Rain = 0
KNH1 210036Z 18013KT 37/14 A2987 RMK A01 T03720139  RH  025%=      5-min Rain = 0
KNH1 210037Z 18012KT 37/14 A2987 RMK A01 T03710140  RH  025%=      5-min Rain = 0
KNH1 210038Z 17012KT 37/14 A2987 RMK A01 T03710138  RH  025%=      5-min Rain = 0
KNH1 210039Z 18012KT 37/14 A2987 RMK A01 T03700137  RH  025%=      5-min Rain = 0
KNH1 210040Z 17013KT 37/14 A2987 RMK A01 T03700137  RH  025%=      5-min Rain = 0
KNH1 210041Z 18011KT 37/14 A2987 RMK A01 T03700138  RH  025%=      5-min Rain = 0
KNH1 210042Z 18011KT 37/14 A2987 RMK A01 T03690139  RH  025%=      5-min Rain = 0
KNH1 210043Z 18013KT 37/14 A2987 RMK A01 T03690139  RH  025%=      5-min Rain = 0
KNH1 210044Z 17012KT 37/14 A2987 RMK A01 T03690137  RH  025%=      5-min Rain = 0
KNH1 210045Z 17010KT 37/14 A2987 RMK A01 T03680138  RH  025%=      5-min Rain = 0
KNH1 210046Z 18012KT 37/14 A2987 RMK A01 T03680138  RH  025%=      5-min Rain = 0
KNH1 210047Z 18012G17KT 37/14 A2987 RMK A01 T03680138  RH  025%=      5-min Rain = 0
KNH1 210048Z 18015KT 37/14 A2987 RMK A01 T03680137  RH  025%=      5-min Rain = 0
KNH1 210049Z 18013KT 37/14 A2987 RMK A01 T03680136  RH  025%=      5-min Rain = 0
KNH1 210050Z 18011KT 37/14 A2987 RMK A01 T03680137  RH  025%=      5-min Rain = 0
KNH1 210051Z 18009KT 37/14 A2987 RMK A01 T03670137  RH  025%=      5-min Rain = 0
KNH1 210052Z 18011KT 37/14 A2987 RMK A01 T03670138  RH  025%=      5-min Rain = 0
KNH1 210053Z 17010KT 37/14 A2987 RMK A01 T03670137  RH  025%=      5-min Rain = 0
KNH1 210054Z 17010KT 37/14 A2987 RMK A01 T03670137  RH  025%=      5-min Rain = 0
KNH1 210055Z 17010KT 37/14 A2987 RMK A01 T03660136  RH  025%=      5-min Rain = 0
KNH1 210056Z 17010KT 37/14 A2987 RMK A01 T03670137  RH  025%=      5-min Rain = 0
KNH1 210057Z 17011KT 37/14 A2987 RMK A01 T03660137  RH  025%=      5-min Rain = 0
KNH1 210058Z 17011KT 37/14 A2987 RMK A01 T03660137  RH  025%=      5-min Rain = 0
KNH1 210059Z 17011KT 37/14 A2987 RMK A01 T03660137  RH  025%=      5-min Rain = 0
KNH1 210100Z 17010KT 37/14 A2987 RMK A01 T03660135  RH  025%=      5-min Rain = 0
KNH1 210101Z 17009KT 37/14 A2987 RMK A01 T03660136  RH  025%=      5-min Rain = 0
KNH1 210102Z 17010KT 37/14 A2987 RMK A01 T03650136  RH  025%=      5-min Rain = 0
KNH1 210103Z 17010KT 37/14 A2987 RMK A01 T03650135  RH  025%=      5-min Rain = 0
KNH1 210104Z 17009KT 37/14 A2987 RMK A01 T03650136  RH  025%=      5-min Rain = 0
KNH1 210105Z 17010KT 37/14 A2987 RMK A01 T03650137  RH  026%=      5-min Rain = 0
KNH1 210106Z 17009KT 36/14 A2987 RMK A01 T03640136  RH  026%=      5-min Rain = 0
KNH1 210107Z 16009KT 36/14 A2987 RMK A01 T03640137  RH  026%=      5-min Rain = 0
KNH1 210108Z 18009KT 36/14 A2987 RMK A01 T03630138  RH  026%=      5-min Rain = 0
KNH1 210109Z 17010KT 36/14 A2987 RMK A01 T03630138  RH  026%=      5-min Rain = 0
KNH1 210110Z 17009KT 36/14 A2988 RMK A01 T03630137  RH  026%=      5-min Rain = 0
KNH1 210111Z 17007KT 36/14 A2988 RMK A01 T03620137  RH  026%=      5-min Rain = 0
KNH1 210112Z 17009KT 36/14 A2988 RMK A01 T03620138  RH  026%=      5-min Rain = 0
KNH1 210113Z 18009KT 36/14 A2988 RMK A01 T03620136  RH  026%=      5-min Rain = 0
KNH1 210114Z 17011KT 36/14 A2988 RMK A01 T03610136  RH  026%=      5-min Rain = 0
KNH1 210115Z 18009KT 36/14 A2988 RMK A01 T03610136  RH  026%=      5-min Rain = 0
KNH1 210116Z 17009KT 36/14 A2988 RMK A01 T03610136  RH  026%=      5-min Rain = 0
KNH1 210117Z 17011KT 36/14 A2988 RMK A01 T03600136  RH  026%=      5-min Rain = 0
KNH1 210118Z 18009KT 36/14 A2988 RMK A01 T03600137  RH  026%=      5-min Rain = 0
KNH1 210119Z 17008KT 36/14 A2988 RMK A01 T03590136  RH  026%=      5-min Rain = 0
KNH1 210120Z 17009KT 36/14 A2988 RMK A01 T03590136  RH  026%=      5-min Rain = 0
KNH1 210121Z 16007KT 36/14 A2988 RMK A01 T03590136  RH  026%=      5-min Rain = 0
KNH1 210122Z 17010KT 36/14 A2988 RMK A01 T03590136  RH  026%=      5-min Rain = 0
KNH1 210123Z 16009KT 36/14 A2988 RMK A01 T03580135  RH  026%=      5-min Rain = 0
KNH1 210124Z 17009KT 36/14 A2988 RMK A01 T03580136  RH  026%=      5-min Rain = 0
KNH1 210125Z 17009KT 36/14 A2988 RMK A01 T03580136  RH  026%=      5-min Rain = 0
KNH1 210126Z 17009KT 36/14 A2988 RMK A01 T03570135  RH  026%=      5-min Rain = 0
KNH1 210127Z 17007KT 36/14 A2988 RMK A01 T03570135  RH  026%=      5-min Rain = 0
KNH1 210128Z 17008KT 36/14 A2988 RMK A01 T03570136  RH  027%=      5-min Rain = 0
KNH1 210129Z 17007KT 36/14 A2988 RMK A01 T03570136  RH  027%=      5-min Rain = 0
KNH1 210130Z 17008KT 36/14 A2988 RMK A01 T03550136  RH  027%=      5-min Rain = 0
KNH1 210131Z 17008KT 36/14 A2988 RMK A01 T03550136  RH  027%=      5-min Rain = 0
KNH1 210132Z 17009KT 36/14 A2988 RMK A01 T03550136  RH  027%=      5-min Rain = 0
KNH1 210133Z 17008G14KT 35/14 A2988 RMK A01 T03540136  RH  027%=      5-min Rain = 0
KNH1 210134Z 18009KT 35/14 A2988 RMK A01 T03540136  RH  027%=      5-min Rain = 0
KNH1 210135Z 18010KT 35/14 A2988 RMK A01 T03530135  RH  027%=      5-min Rain = 0
KNH1 210136Z 17008KT 35/14 A2988 RMK A01 T03540135  RH  027%=      5-min Rain = 0
KNH1 210137Z 17009KT 35/13 A2988 RMK A01 T03530134  RH  027%=      5-min Rain = 0
KNH1 210138Z 17010KT 35/13 A2988 RMK A01 T03530134  RH  027%=      5-min Rain = 0
KNH1 210139Z 17010KT 35/13 A2988 RMK A01 T03530133  RH  027%=      5-min Rain = 0
KNH1 210140Z 17010KT 35/13 A2988 RMK A01 T03530133  RH  027%=      5-min Rain = 0
KNH1 210141Z 18009KT 35/13 A2988 RMK A01 T03530133  RH  027%=      5-min Rain = 0
KNH1 210142Z 18009KT 35/13 A2988 RMK A01 T03520132  RH  027%=      5-min Rain = 0
KNH1 210143Z 17010KT 35/13 A2988 RMK A01 T03520133  RH  027%=      5-min Rain = 0
KNH1 210144Z 17009KT 35/13 A2988 RMK A01 T03520132  RH  027%=      5-min Rain = 0
KNH1 210145Z 17009KT 35/13 A2988 RMK A01 T03520132  RH  027%=      5-min Rain = 0
KNH1 210146Z 18009KT 35/13 A2988 RMK A01 T03510132  RH  027%=      5-min Rain = 0
KNH1 210147Z 17009KT 35/13 A2988 RMK A01 T03510132  RH  027%=      5-min Rain = 0
KNH1 210148Z 17009KT 35/13 A2988 RMK A01 T03500132  RH  027%=      5-min Rain = 0
KNH1 210149Z 18009KT 35/13 A2988 RMK A01 T03500132  RH  027%=      5-min Rain = 0
KNH1 210150Z 18008KT 35/13 A2988 RMK A01 T03500133  RH  027%=      5-min Rain = 0
KNH1 210151Z 17009KT 35/13 A2988 RMK A01 T03490132  RH  027%=      5-min Rain = 0
KNH1 210152Z 18009KT 35/13 A2988 RMK A01 T03490132  RH  027%=      5-min Rain = 0
KNH1 210153Z 18009KT 35/13 A2988 RMK A01 T03480132  RH  027%=      5-min Rain = 0
KNH1 210154Z 17008KT 35/13 A2988 RMK A01 T03480132  RH  027%=      5-min Rain = 0
KNH1 210155Z 17008KT 35/13 A2988 RMK A01 T03480133  RH  027%=      5-min Rain = 0
KNH1 210156Z 17008KT 35/13 A2988 RMK A01 T03470132  RH  027%=      5-min Rain = 0
KNH1 210157Z 17008KT 35/13 A2988 RMK A01 T03460132  RH  028%=      5-min Rain = 0
KNH1 210158Z 18008KT 35/13 A2988 RMK A01 T03460132  RH  028%=      5-min Rain = 0
KNH1 210159Z 17009KT 35/13 A2988 RMK A01 T03460132  RH  028%=      5-min Rain = 0
KNH1 210200Z 17008KT 35/13 A2988 RMK A01 T03460132  RH  028%=      5-min Rain = 0
KNH1 210201Z 17008KT 35/13 A2988 RMK A01 T03450132  RH  028%=      5-min Rain = 0
KNH1 210202Z 17008KT 35/13 A2988 RMK A01 T03450133  RH  028%=      5-min Rain = 0
KNH1 210203Z 17009KT 34/13 A2988 RMK A01 T03440133  RH  028%=      5-min Rain = 0
KNH1 210204Z 17008KT 34/13 A2988 RMK A01 T03440133  RH  028%=      5-min Rain = 0
KNH1 210205Z 18008KT 34/13 A2988 RMK A01 T03440133  RH  028%=      5-min Rain = 0
KNH1 210206Z 17008KT 34/13 A2988 RMK A01 T03430133  RH  028%=      5-min Rain = 0
KNH1 210207Z 17008KT 34/13 A2988 RMK A01 T03430133  RH  028%=      5-min Rain = 0
KNH1 210208Z 18008KT 34/13 A2988 RMK A01 T03420133  RH  028%=      5-min Rain = 0
KNH1 210209Z 17008KT 34/13 A2988 RMK A01 T03420133  RH  028%=      5-min Rain = 0
KNH1 210210Z 18007KT 34/13 A2988 RMK A01 T03420133  RH  028%=      5-min Rain = 0
KNH1 210211Z 18009KT 34/13 A2988 RMK A01 T03410133  RH  028%=      5-min Rain = 0
KNH1 210212Z 18009KT 34/13 A2988 RMK A01 T03410133  RH  028%=      5-min Rain = 0
KNH1 210213Z 18009KT 34/13 A2988 RMK A01 T03410133  RH  029%=      5-min Rain = 0
KNH1 210214Z 18008KT 34/13 A2989 RMK A01 T03410133  RH  029%=      5-min Rain = 0
KNH1 210215Z 18009KT 34/13 A2989 RMK A01 T03410133  RH  029%=      5-min Rain = 0
KNH1 210216Z 18008KT 34/13 A2989 RMK A01 T03400133  RH  029%=      5-min Rain = 0
KNH1 210217Z 18010KT 34/13 A2989 RMK A01 T03400133  RH  029%=      5-min Rain = 0
KNH1 210218Z 18008KT 34/13 A2989 RMK A01 T03400134  RH  029%=      5-min Rain = 0
KNH1 210219Z 18010KT 34/13 A2989 RMK A01 T03400134  RH  029%=      5-min Rain = 0
KNH1 210220Z 18009KT 34/13 A2989 RMK A01 T03400134  RH  029%=      5-min Rain = 0
KNH1 210221Z 17009KT 34/14 A2989 RMK A01 T03390135  RH  029%=      5-min Rain = 0
KNH1 210222Z 17010KT 34/14 A2989 RMK A01 T03390135  RH  029%=      5-min Rain = 0
KNH1 210223Z 17008KT 34/14 A2989 RMK A01 T03390135  RH  029%=      5-min Rain = 0
KNH1 210224Z 18009KT 34/14 A2989 RMK A01 T03380135  RH  029%=      5-min Rain = 0
KNH1 210225Z 18010KT 34/14 A2989 RMK A01 T03380136  RH  030%=      5-min Rain = 0
KNH1 210226Z 18009KT 34/14 A2989 RMK A01 T03370136  RH  030%=      5-min Rain = 0
KNH1 210227Z 18008G13KT 34/14 A2989 RMK A01 T03370136  RH  030%=      5-min Rain = 0
KNH1 210228Z 17008KT 34/14 A2989 RMK A01 T03360137  RH  030%=      5-min Rain = 0
KNH1 210229Z 18010KT 34/14 A2989 RMK A01 T03360137  RH  030%=      5-min Rain = 0
KNH1 210230Z 18009KT 34/14 A2989 RMK A01 T03350138  RH  030%=      5-min Rain = 0
KNH1 210231Z 18011G16KT 34/14 A2989 RMK A01 T03360139  RH  031%=      5-min Rain = 0
KNH1 210232Z 18010KT 34/14 A2989 RMK A01 T03360140  RH  031%=      5-min Rain = 0
KNH1 210233Z 18011KT 34/14 A2989 RMK A01 T03360140  RH  031%=      5-min Rain = 0
KNH1 210234Z 18011KT 34/14 A2989 RMK A01 T03360141  RH  031%=      5-min Rain = 0
KNH1 210235Z 17010KT 34/14 A2989 RMK A01 T03360141  RH  031%=      5-min Rain = 0
KNH1 210236Z 17009KT 34/14 A2989 RMK A01 T03360141  RH  031%=      5-min Rain = 0
KNH1 210237Z 17009KT 34/14 A2989 RMK A01 T03350142  RH  031%=      5-min Rain = 0
KNH1 210238Z 18010KT 34/14 A2989 RMK A01 T03350142  RH  031%=      5-min Rain = 0
KNH1 210239Z 18010KT 33/14 A2989 RMK A01 T03340142  RH  031%=      5-min Rain = 0
KNH1 210240Z 17008KT 33/14 A2989 RMK A01 T03340142  RH  032%=      5-min Rain = 0
KNH1 210241Z 18008KT 33/14 A2989 RMK A01 T03330142  RH  032%=      5-min Rain = 0
KNH1 210242Z 18009KT 33/14 A2989 RMK A01 T03320143  RH  032%=      5-min Rain = 0
KNH1 210243Z 17008KT 33/14 A2989 RMK A01 T03320144  RH  032%=      5-min Rain = 0
KNH1 210244Z 17008KT 33/14 A2989 RMK A01 T03320144  RH  032%=      5-min Rain = 0
KNH1 210245Z 17010KT 33/14 A2989 RMK A01 T03310144  RH  032%=      5-min Rain = 0
KNH1 210246Z 18010KT 33/15 A2989 RMK A01 T03310145  RH  032%=      5-min Rain = 0
KNH1 210247Z 17009KT 33/15 A2989 RMK A01 T03310145  RH  033%=      5-min Rain = 0
KNH1 210248Z 17008KT 33/15 A2989 RMK A01 T03310145  RH  033%=      5-min Rain = 0
KNH1 210249Z 17008KT 33/15 A2989 RMK A01 T03310146  RH  033%=      5-min Rain = 0
KNH1 210250Z 17010KT 33/15 A2989 RMK A01 T03300146  RH  033%=      5-min Rain = 0
KNH1 210251Z 17010KT 33/15 A2989 RMK A01 T03300146  RH  033%=      5-min Rain = 0
KNH1 210252Z 17009KT 33/15 A2989 RMK A01 T03290146  RH  033%=      5-min Rain = 0
KNH1 210253Z 17009KT 33/15 A2989 RMK A01 T03290147  RH  033%=      5-min Rain = 0
KNH1 210254Z 17010KT 33/15 A2989 RMK A01 T03290147  RH  033%=      5-min Rain = 0
KNH1 210255Z 17012KT 33/15 A2989 RMK A01 T03290147  RH  033%=      5-min Rain = 0
KNH1 210256Z 17010KT 33/15 A2989 RMK A01 T03290147  RH  033%=      5-min Rain = 0
KNH1 210257Z 17010KT 33/15 A2989 RMK A01 T03290148  RH  033%=      5-min Rain = 0
KNH1 210258Z 17010KT 33/15 A299 RMK A01 T03290148  RH  034%=      5-min Rain = 0
KNH1 210259Z 17010KT 33/15 A299 RMK A01 T03290149  RH  034%=      5-min Rain = 0
KNH1 210300Z 17009KT 33/15 A299 RMK A01 T03290148  RH  034%=      5-min Rain = 0
KNH1 210301Z 17010KT 33/15 A299 RMK A01 T03290148  RH  034%=      5-min Rain = 0
KNH1 210302Z 17011KT 33/15 A299 RMK A01 T03290149  RH  034%=      5-min Rain = 0
KNH1 210303Z 18011G16KT 33/15 A299 RMK A01 T03290149  RH  034%=      5-min Rain = 0
KNH1 210304Z 17013KT 33/15 A299 RMK A01 T03290149  RH  034%=      5-min Rain = 0
KNH1 210305Z 17010G15KT 33/15 A299 RMK A01 T03290149  RH  034%=      5-min Rain = 0
KNH1 210306Z 17011KT 33/15 A299 RMK A01 T03290149  RH  034%=      5-min Rain = 0
KNH1 210307Z 18014KT 33/15 A299 RMK A01 T03290149  RH  034%=      5-min Rain = 0
KNH1 210308Z 18010KT 33/15 A299 RMK A01 T03290149  RH  034%=      5-min Rain = 0
KNH1 210309Z 18012KT 33/15 A299 RMK A01 T03280149  RH  034%=      5-min Rain = 0
KNH1 210310Z 17011KT 33/15 A299 RMK A01 T03280149  RH  034%=      5-min Rain = 0
KNH1 210311Z 18012KT 33/15 A299 RMK A01 T03280149  RH  034%=      5-min Rain = 0
KNH1 210312Z 17012KT 33/15 A299 RMK A01 T03280149  RH  034%=      5-min Rain = 0
KNH1 210313Z 17011KT 33/15 A299 RMK A01 T03280149  RH  034%=      5-min Rain = 0
KNH1 210314Z 17011G16KT 33/15 A299 RMK A01 T03270149  RH  034%=      5-min Rain = 0
KNH1 210315Z 18011KT 33/15 A299 RMK A01 T03270149  RH  034%=      5-min Rain = 0
KNH1 210316Z 18011KT 33/15 A299 RMK A01 T03270148  RH  034%=      5-min Rain = 0
KNH1 210317Z 18012KT 33/15 A2991 RMK A01 T03260148  RH  034%=      5-min Rain = 0
KNH1 210318Z 17013KT 33/15 A2991 RMK A01 T03260148  RH  034%=      5-min Rain = 0
KNH1 210319Z 17012KT 33/15 A2991 RMK A01 T03260148  RH  034%=      5-min Rain = 0
KNH1 210320Z 17010KT 33/15 A2991 RMK A01 T03260148  RH  034%=      5-min Rain = 0
KNH1 210321Z 18013KT 33/15 A2991 RMK A01 T03260148  RH  034%=      5-min Rain = 0
KNH1 210322Z 17012KT 33/15 A2991 RMK A01 T03260148  RH  034%=      5-min Rain = 0
KNH1 210323Z 17013G18KT 33/15 A2991 RMK A01 T03260148  RH  034%=      5-min Rain = 0
KNH1 210324Z 17012KT 33/15 A2991 RMK A01 T03260147  RH  034%=      5-min Rain = 0
KNH1 210325Z 18010KT 33/15 A2991 RMK A01 T03250147  RH  034%=      5-min Rain = 0
KNH1 210326Z 17012KT 33/15 A2991 RMK A01 T03250147  RH  034%=      5-min Rain = 0
KNH1 210327Z 17014KT 33/15 A2991 RMK A01 T03250147  RH  034%=      5-min Rain = 0
KNH1 210328Z 17012G17KT 33/15 A2991 RMK A01 T03250147  RH  034%=      5-min Rain = 0
KNH1 210329Z 17013KT 33/15 A2991 RMK A01 T03250147  RH  034%=      5-min Rain = 0
KNH1 210330Z 18011G16KT 33/15 A2991 RMK A01 T03250147  RH  034%=      5-min Rain = 0
KNH1 210331Z 17010KT 32/15 A2991 RMK A01 T03240146  RH  034%=      5-min Rain = 0
KNH1 210332Z 17010KT 32/15 A2991 RMK A01 T03240146  RH  034%=      5-min Rain = 0
KNH1 210333Z 17012KT 32/15 A2991 RMK A01 T03230146  RH  034%=      5-min Rain = 0
KNH1 210334Z 17012G17KT 32/15 A2991 RMK A01 T03230146  RH  034%=      5-min Rain = 0
KNH1 210335Z 16011KT 32/15 A2991 RMK A01 T03230146  RH  034%=      5-min Rain = 0
KNH1 210336Z 18013G18KT 32/15 A2992 RMK A01 T03230145  RH  034%=      5-min Rain = 0
KNH1 210337Z 17012G17KT 32/15 A2992 RMK A01 T03230145  RH  034%=      5-min Rain = 0
KNH1 210338Z 17014G19KT 32/15 A2992 RMK A01 T03230145  RH  034%=      5-min Rain = 0
KNH1 210339Z 17013KT 32/14 A2992 RMK A01 T03230144  RH  034%=      5-min Rain = 0
KNH1 210340Z 17013G19KT 32/14 A2992 RMK A01 T03230144  RH  034%=      5-min Rain = 0
KNH1 210341Z 18013KT 32/14 A2992 RMK A01 T03230144  RH  034%=      5-min Rain = 0
KNH1 210342Z 17011G16KT 32/14 A2992 RMK A01 T03220144  RH  034%=      5-min Rain = 0
KNH1 210343Z 17014G19KT 32/14 A2992 RMK A01 T03220143  RH  034%=      5-min Rain = 0
KNH1 210344Z 18016KT 32/14 A2992 RMK A01 T03220143  RH  034%=      5-min Rain = 0
KNH1 210345Z 17016G21KT 32/14 A2992 RMK A01 T03220142  RH  034%=      5-min Rain = 0
KNH1 210346Z 17014KT 32/14 A2992 RMK A01 T03230142  RH  034%=      5-min Rain = 0
KNH1 210347Z 17014G20KT 32/14 A2992 RMK A01 T03230143  RH  034%=      5-min Rain = 0
KNH1 210348Z 17013G20KT 32/14 A2992 RMK A01 T03220142  RH  034%=      5-min Rain = 0
KNH1 210349Z 17011G17KT 32/14 A2992 RMK A01 T03210141  RH  034%=      5-min Rain = 0
KNH1 210350Z 18012KT 32/14 A2992 RMK A01 T03210141  RH  034%=      5-min Rain = 0
KNH1 210351Z 17011KT 32/14 A2992 RMK A01 T03210141  RH  034%=      5-min Rain = 0
KNH1 210352Z 18011G16KT 32/14 A2992 RMK A01 T03200141  RH  034%=      5-min Rain = 0
KNH1 210353Z 17011G16KT 32/14 A2992 RMK A01 T03190140  RH  034%=      5-min Rain = 0
KNH1 210354Z 17011KT 32/14 A2992 RMK A01 T03190140  RH  034%=      5-min Rain = 0
KNH1 210355Z 17010KT 32/14 A2992 RMK A01 T03190140  RH  034%=      5-min Rain = 0
KNH1 210356Z 17011G16KT 32/14 A2992 RMK A01 T03190140  RH  034%=      5-min Rain = 0
KNH1 210357Z 17012G18KT 32/14 A2992 RMK A01 T03190140  RH  034%=      5-min Rain = 0
KNH1 210358Z 18013KT 32/14 A2992 RMK A01 T03180139  RH  034%=      5-min Rain = 0
KNH1 210359Z 17012KT 32/14 A2992 RMK A01 T03190138  RH  033%=      5-min Rain = 0
KNH1 210400Z 17010KT 32/14 A2992 RMK A01 T03180138  RH  033%=      5-min Rain = 0
KNH1 210401Z 17014G22KT 32/14 A2992 RMK A01 T03180136  RH  033%=      5-min Rain = 0
KNH1 210402Z 18015KT 32/14 A2992 RMK A01 T03170136  RH  033%=      5-min Rain = 0
KNH1 210403Z 17011KT 32/14 A2992 RMK A01 T03180137  RH  033%=      5-min Rain = 0
KNH1 210404Z 17012KT 32/14 A2993 RMK A01 T03180136  RH  033%=      5-min Rain = 0
KNH1 210405Z 18012G17KT 32/14 A2993 RMK A01 T03170136  RH  033%=      5-min Rain = 0
KNH1 210406Z 17010KT 32/14 A2993 RMK A01 T03170136  RH  033%=      5-min Rain = 0
KNH1 210407Z 18012KT 32/14 A2993 RMK A01 T03170136  RH  033%=      5-min Rain = 0
KNH1 210408Z 17013KT 32/14 A2993 RMK A01 T03170137  RH  033%=      5-min Rain = 0
KNH1 210409Z 18014KT 32/14 A2993 RMK A01 T03160136  RH  033%=      5-min Rain = 0
KNH1 210410Z 17011G17KT 32/14 A2993 RMK A01 T03160136  RH  033%=      5-min Rain = 0
KNH1 210411Z 18012G17KT 32/14 A2993 RMK A01 T03160135  RH  033%=      5-min Rain = 0
KNH1 210412Z 17011KT 32/14 A2993 RMK A01 T03160135  RH  033%=      5-min Rain = 0
KNH1 210413Z 17012KT 32/14 A2993 RMK A01 T03160135  RH  033%=      5-min Rain = 0
KNH1 210414Z 18010KT 32/13 A2993 RMK A01 T03150133  RH  033%=      5-min Rain = 0
KNH1 210415Z 17014KT 32/13 A2993 RMK A01 T03150133  RH  033%=      5-min Rain = 0
KNH1 210416Z 18013G18KT 32/13 A2993 RMK A01 T03150132  RH  033%=      5-min Rain = 0
KNH1 210417Z 18012KT 32/13 A2993 RMK A01 T03150132  RH  033%=      5-min Rain = 0
KNH1 210418Z 18012KT 32/13 A2993 RMK A01 T03150132  RH  033%=      5-min Rain = 0
KNH1 210419Z 18011G16KT 31/13 A2993 RMK A01 T03140131  RH  033%=      5-min Rain = 0
KNH1 210420Z 17013G18KT 32/13 A2993 RMK A01 T03150132  RH  033%=      5-min Rain = 0
KNH1 210421Z 18013KT 31/13 A2994 RMK A01 T03140131  RH  033%=      5-min Rain = 0
KNH1 210422Z 17011G17KT 31/13 A2994 RMK A01 T03140131  RH  033%=      5-min Rain = 0
KNH1 210423Z 18013KT 31/13 A2994 RMK A01 T03140130  RH  033%=      5-min Rain = 0
KNH1 210424Z 18012KT 31/13 A2994 RMK A01 T03130130  RH  033%=      5-min Rain = 0
KNH1 210425Z 18010G15KT 31/13 A2994 RMK A01 T03130130  RH  033%=      5-min Rain = 0
KNH1 210426Z 18011KT 31/13 A2993 RMK A01 T03130130  RH  033%=      5-min Rain = 0
KNH1 210427Z 17011KT 31/13 A2993 RMK A01 T03130130  RH  033%=      5-min Rain = 0
KNH1 210428Z 18013KT 31/13 A2993 RMK A01 T03120129  RH  033%=      5-min Rain = 0
KNH1 210429Z 18011KT 31/13 A2993 RMK A01 T03120129  RH  033%=      5-min Rain = 0
KNH1 210430Z 18013KT 31/13 A2993 RMK A01 T03120129  RH  033%=      5-min Rain = 0
KNH1 210431Z 18012KT 31/13 A2993 RMK A01 T03110128  RH  033%=      5-min Rain = 0
KNH1 210432Z 17013G18KT 31/13 A2993 RMK A01 T03110128  RH  033%=      5-min Rain = 0
KNH1 210433Z 18010KT 31/13 A2994 RMK A01 T03110128  RH  033%=      5-min Rain = 0
KNH1 210434Z 18015KT 31/13 A2994 RMK A01 T03110128  RH  033%=      5-min Rain = 0
KNH1 210435Z 18011G16KT 31/13 A2994 RMK A01 T03110127  RH  033%=      5-min Rain = 0
KNH1 210436Z 18012KT 31/13 A2994 RMK A01 T03110128  RH  033%=      5-min Rain = 0
KNH1 210437Z 17010KT 31/13 A2994 RMK A01 T03110127  RH  033%=      5-min Rain = 0
KNH1 210438Z 18013KT 31/13 A2994 RMK A01 T03100128  RH  033%=      5-min Rain = 0
KNH1 210439Z 18012KT 31/13 A2994 RMK A01 T03100127  RH  033%=      5-min Rain = 0
KNH1 210440Z 18012KT 31/13 A2994 RMK A01 T03100127  RH  033%=      5-min Rain = 0
KNH1 210441Z 18013G18KT 31/13 A2994 RMK A01 T03090127  RH  033%=      5-min Rain = 0
KNH1 210442Z 18013KT 31/13 A2994 RMK A01 T03090127  RH  033%=      5-min Rain = 0
KNH1 210443Z 17012KT 31/13 A2994 RMK A01 T03090127  RH  033%=      5-min Rain = 0
KNH1 210444Z 18011KT 31/13 A2994 RMK A01 T03090127  RH  033%=      5-min Rain = 0
KNH1 210445Z 18011KT 31/13 A2994 RMK A01 T03080126  RH  033%=      5-min Rain = 0
KNH1 210446Z 18011KT 31/13 A2994 RMK A01 T03080126  RH  033%=      5-min Rain = 0
KNH1 210447Z 18012KT 31/13 A2994 RMK A01 T03070126  RH  033%=      5-min Rain = 0
KNH1 210448Z 18012KT 31/13 A2994 RMK A01 T03070126  RH  033%=      5-min Rain = 0
KNH1 210449Z 18011KT 31/13 A2994 RMK A01 T03070126  RH  033%=      5-min Rain = 0
KNH1 210450Z 18014KT 31/13 A2994 RMK A01 T03070126  RH  033%=      5-min Rain = 0
KNH1 210451Z 18012KT 31/13 A2994 RMK A01 T03070126  RH  033%=      5-min Rain = 0
KNH1 210452Z 18013KT 31/13 A2994 RMK A01 T03070126  RH  033%=      5-min Rain = 0
KNH1 210453Z 18013KT 31/13 A2994 RMK A01 T03070126  RH  033%=      5-min Rain = 0
KNH1 210454Z 18012KT 31/13 A2994 RMK A01 T03070126  RH  033%=      5-min Rain = 0
KNH1 210455Z 18012G17KT 31/13 A2994 RMK A01 T03060126  RH  033%=      5-min Rain = 0
KNH1 210456Z 18013KT 31/13 A2994 RMK A01 T03060126  RH  033%=      5-min Rain = 0
KNH1 210457Z 18011KT 31/13 A2994 RMK A01 T03060126  RH  033%=      5-min Rain = 0
KNH1 210458Z 18013KT 31/13 A2994 RMK A01 T03060126  RH  033%=      5-min Rain = 0
KNH1 210459Z 18013KT 31/13 A2994 RMK A01 T03050126  RH  033%=      5-min Rain = 0

Page generated in 0.1302 seconds.